<?xml version="1.0" encoding="UTF-8" standalone="no" ?>
<gpx xmlns="http://www.topografix.com/GPX/1/1" xmlns:xsi="http://www.w3.org/2001/XMLSchema-instance" xsi:schemaLocation="http://www.topografix.com/GPX/1/1 http://www.topografix.com/GPX/1/1/gpx.xsd" version="1.1" creator="VisuGPX - https://www.visugpx.com">
  <metadata>
    <name>SFL_TransMontjoie par plan Richard 2013-08-07</name>
    <desc><![CDATA[SFL_TransMontjoie par plan Richard 2013-08-07]]></desc>
  </metadata>
  <trk>
    <name><![CDATA[2013-08-07 14:15]]></name>
    <desc><![CDATA[<h1>OruxMaps</h1><br /><hr align="center" width="480" style="height: 2px; width: 517px"/><h2>Nom: 2013-08-07 14:15</h2><br /><p>Temps de départ: 08/07/2013 14:17</p><p>Temps d'arrivée: 08/07/2013 18:35</p><p>Distance: 16,4 km (04:17)</p><p>Temps déplacement: 03:21</p><p>Vitesse moyenne: 3,8 km/h</p><p>Vitesse moyenne: 4,9 km/h</p><p>Vitess Max.: 34,2 km/h</p><p>Altitude minimale: 419 m</p><p>Altitude maximale: 2260 m</p><p>Vitesse d'élévation: 407,1 m/h</p><p>Vitesse de descente: -908,5 m/h</p><p>Gain Altitude: 719 m</p><p>Perte Altitude: -1755 m</p><p>Temps d'élévation: 01:45</p><p>Temps de descente: 01:55</p><hr align="center" width="480" style="height: 2px; width: 517px"/>]]></desc>
    <trkseg>
      <trkpt lat="45.41769" lon="6.36241">
        <ele>1584.66</ele>
        <time>2013-08-07T12:17:33Z</time>
      </trkpt>
      <trkpt lat="45.41765" lon="6.36215">
        <ele>1581.29</ele>
        <time>2013-08-07T12:17:52Z</time>
      </trkpt>
      <trkpt lat="45.41764" lon="6.3619">
        <ele>1583.33</ele>
        <time>2013-08-07T12:17:58Z</time>
      </trkpt>
      <trkpt lat="45.41782" lon="6.36175">
        <ele>1581.39</ele>
        <time>2013-08-07T12:18:13Z</time>
      </trkpt>
      <trkpt lat="45.41803" lon="6.36176">
        <ele>1579.23</ele>
        <time>2013-08-07T12:18:17Z</time>
      </trkpt>
      <trkpt lat="45.41823" lon="6.36174">
        <ele>1577.86</ele>
        <time>2013-08-07T12:18:22Z</time>
      </trkpt>
      <trkpt lat="45.41818" lon="6.36149">
        <ele>1573.16</ele>
        <time>2013-08-07T12:18:30Z</time>
      </trkpt>
      <trkpt lat="45.41807" lon="6.36124">
        <ele>1569.66</ele>
        <time>2013-08-07T12:18:37Z</time>
      </trkpt>
      <trkpt lat="45.41808" lon="6.36099">
        <ele>1566.19</ele>
        <time>2013-08-07T12:18:45Z</time>
      </trkpt>
      <trkpt lat="45.41829" lon="6.36103">
        <ele>1562.71</ele>
        <time>2013-08-07T12:18:59Z</time>
      </trkpt>
      <trkpt lat="45.41844" lon="6.36122">
        <ele>1558.88</ele>
        <time>2013-08-07T12:19:03Z</time>
      </trkpt>
      <trkpt lat="45.41861" lon="6.36134">
        <ele>1554.23</ele>
        <time>2013-08-07T12:19:11Z</time>
      </trkpt>
      <trkpt lat="45.4187" lon="6.36108">
        <ele>1552.8</ele>
        <time>2013-08-07T12:19:17Z</time>
      </trkpt>
      <trkpt lat="45.41874" lon="6.36076">
        <ele>1550.3</ele>
        <time>2013-08-07T12:19:22Z</time>
      </trkpt>
      <trkpt lat="45.41873" lon="6.3605">
        <ele>1545.99</ele>
        <time>2013-08-07T12:19:26Z</time>
      </trkpt>
      <trkpt lat="45.41884" lon="6.3603">
        <ele>1542.95</ele>
        <time>2013-08-07T12:19:34Z</time>
      </trkpt>
      <trkpt lat="45.41876" lon="6.36005">
        <ele>1542.21</ele>
        <time>2013-08-07T12:19:47Z</time>
      </trkpt>
      <trkpt lat="45.41873" lon="6.35977">
        <ele>1542.43</ele>
        <time>2013-08-07T12:19:57Z</time>
      </trkpt>
      <trkpt lat="45.41874" lon="6.35951">
        <ele>1542.63</ele>
        <time>2013-08-07T12:20:04Z</time>
      </trkpt>
      <trkpt lat="45.4187" lon="6.35924">
        <ele>1542.9</ele>
        <time>2013-08-07T12:20:12Z</time>
      </trkpt>
      <trkpt lat="45.41864" lon="6.35898">
        <ele>1543.27</ele>
        <time>2013-08-07T12:20:20Z</time>
      </trkpt>
      <trkpt lat="45.41864" lon="6.35871">
        <ele>1543.61</ele>
        <time>2013-08-07T12:20:28Z</time>
      </trkpt>
      <trkpt lat="45.41862" lon="6.35845">
        <ele>1544.13</ele>
        <time>2013-08-07T12:20:37Z</time>
      </trkpt>
      <trkpt lat="45.41858" lon="6.3582">
        <ele>1544.77</ele>
        <time>2013-08-07T12:20:46Z</time>
      </trkpt>
      <trkpt lat="45.41854" lon="6.35792">
        <ele>1545.39</ele>
        <time>2013-08-07T12:20:55Z</time>
      </trkpt>
      <trkpt lat="45.41859" lon="6.35765">
        <ele>1546.13</ele>
        <time>2013-08-07T12:21:05Z</time>
      </trkpt>
      <trkpt lat="45.4187" lon="6.3574">
        <ele>1549.38</ele>
        <time>2013-08-07T12:28:32Z</time>
      </trkpt>
      <trkpt lat="45.41875" lon="6.35714">
        <ele>1549.57</ele>
        <time>2013-08-07T12:28:39Z</time>
      </trkpt>
      <trkpt lat="45.41882" lon="6.3569">
        <ele>1549.74</ele>
        <time>2013-08-07T12:28:47Z</time>
      </trkpt>
      <trkpt lat="45.41891" lon="6.35664">
        <ele>1550.4</ele>
        <time>2013-08-07T12:28:56Z</time>
      </trkpt>
      <trkpt lat="45.41898" lon="6.35637">
        <ele>1550.82</ele>
        <time>2013-08-07T12:29:03Z</time>
      </trkpt>
      <trkpt lat="45.41897" lon="6.35608">
        <ele>1551.07</ele>
        <time>2013-08-07T12:29:10Z</time>
      </trkpt>
      <trkpt lat="45.41885" lon="6.35587">
        <ele>1552.1</ele>
        <time>2013-08-07T12:29:20Z</time>
      </trkpt>
      <trkpt lat="45.41876" lon="6.35564">
        <ele>1553.41</ele>
        <time>2013-08-07T12:29:33Z</time>
      </trkpt>
      <trkpt lat="45.41879" lon="6.35537">
        <ele>1554.23</ele>
        <time>2013-08-07T12:29:43Z</time>
      </trkpt>
      <trkpt lat="45.41885" lon="6.35511">
        <ele>1555.06</ele>
        <time>2013-08-07T12:29:49Z</time>
      </trkpt>
      <trkpt lat="45.41895" lon="6.35489">
        <ele>1556.14</ele>
        <time>2013-08-07T12:29:53Z</time>
      </trkpt>
      <trkpt lat="45.41907" lon="6.35465">
        <ele>1556.96</ele>
        <time>2013-08-07T12:29:57Z</time>
      </trkpt>
      <trkpt lat="45.41908" lon="6.35436">
        <ele>1557.04</ele>
        <time>2013-08-07T12:30:04Z</time>
      </trkpt>
      <trkpt lat="45.41911" lon="6.35409">
        <ele>1556.86</ele>
        <time>2013-08-07T12:30:08Z</time>
      </trkpt>
      <trkpt lat="45.41913" lon="6.35379">
        <ele>1555.31</ele>
        <time>2013-08-07T12:30:12Z</time>
      </trkpt>
      <trkpt lat="45.41896" lon="6.35368">
        <ele>1553.9</ele>
        <time>2013-08-07T12:30:16Z</time>
      </trkpt>
      <trkpt lat="45.41873" lon="6.35369">
        <ele>1551.75</ele>
        <time>2013-08-07T12:30:20Z</time>
      </trkpt>
      <trkpt lat="45.41854" lon="6.35368">
        <ele>1549.82</ele>
        <time>2013-08-07T12:30:23Z</time>
      </trkpt>
      <trkpt lat="45.41845" lon="6.35341">
        <ele>1546.79</ele>
        <time>2013-08-07T12:30:28Z</time>
      </trkpt>
      <trkpt lat="45.41832" lon="6.35313">
        <ele>1545.2</ele>
        <time>2013-08-07T12:30:31Z</time>
      </trkpt>
      <trkpt lat="45.4182" lon="6.35282">
        <ele>1543.4</ele>
        <time>2013-08-07T12:30:34Z</time>
      </trkpt>
      <trkpt lat="45.41811" lon="6.35252">
        <ele>1541.21</ele>
        <time>2013-08-07T12:30:37Z</time>
      </trkpt>
      <trkpt lat="45.41802" lon="6.35222">
        <ele>1539.36</ele>
        <time>2013-08-07T12:30:40Z</time>
      </trkpt>
      <trkpt lat="45.41795" lon="6.35193">
        <ele>1537.8</ele>
        <time>2013-08-07T12:30:43Z</time>
      </trkpt>
      <trkpt lat="45.41787" lon="6.35162">
        <ele>1536.88</ele>
        <time>2013-08-07T12:30:46Z</time>
      </trkpt>
      <trkpt lat="45.41777" lon="6.35134">
        <ele>1536.5</ele>
        <time>2013-08-07T12:30:49Z</time>
      </trkpt>
      <trkpt lat="45.41768" lon="6.35103">
        <ele>1536.25</ele>
        <time>2013-08-07T12:30:52Z</time>
      </trkpt>
      <trkpt lat="45.41758" lon="6.3507">
        <ele>1535.83</ele>
        <time>2013-08-07T12:30:55Z</time>
      </trkpt>
      <trkpt lat="45.41748" lon="6.35038">
        <ele>1535.3</ele>
        <time>2013-08-07T12:30:58Z</time>
      </trkpt>
      <trkpt lat="45.41738" lon="6.35012">
        <ele>1534.53</ele>
        <time>2013-08-07T12:31:01Z</time>
      </trkpt>
      <trkpt lat="45.41733" lon="6.34984">
        <ele>1534.1</ele>
        <time>2013-08-07T12:31:05Z</time>
      </trkpt>
      <trkpt lat="45.41728" lon="6.34959">
        <ele>1534.27</ele>
        <time>2013-08-07T12:31:08Z</time>
      </trkpt>
      <trkpt lat="45.41721" lon="6.34931">
        <ele>1534.38</ele>
        <time>2013-08-07T12:31:11Z</time>
      </trkpt>
      <trkpt lat="45.41711" lon="6.34901">
        <ele>1533.64</ele>
        <time>2013-08-07T12:31:14Z</time>
      </trkpt>
      <trkpt lat="45.41704" lon="6.34867">
        <ele>1532.34</ele>
        <time>2013-08-07T12:31:17Z</time>
      </trkpt>
      <trkpt lat="45.41701" lon="6.34829">
        <ele>1530.96</ele>
        <time>2013-08-07T12:31:20Z</time>
      </trkpt>
      <trkpt lat="45.41703" lon="6.34795">
        <ele>1529.73</ele>
        <time>2013-08-07T12:31:23Z</time>
      </trkpt>
      <trkpt lat="45.4172" lon="6.34799">
        <ele>1529.39</ele>
        <time>2013-08-07T12:31:42Z</time>
      </trkpt>
      <trkpt lat="45.41738" lon="6.34808">
        <ele>1530.81</ele>
        <time>2013-08-07T12:31:57Z</time>
      </trkpt>
      <trkpt lat="45.41755" lon="6.34815">
        <ele>1532.94</ele>
        <time>2013-08-07T12:32:15Z</time>
      </trkpt>
      <trkpt lat="45.41772" lon="6.34824">
        <ele>1536.24</ele>
        <time>2013-08-07T12:32:37Z</time>
      </trkpt>
      <trkpt lat="45.41789" lon="6.34836">
        <ele>1540.15</ele>
        <time>2013-08-07T12:33:00Z</time>
      </trkpt>
      <trkpt lat="45.41807" lon="6.34842">
        <ele>1545.21</ele>
        <time>2013-08-07T12:33:25Z</time>
      </trkpt>
      <trkpt lat="45.41823" lon="6.34854">
        <ele>1549.89</ele>
        <time>2013-08-07T12:33:49Z</time>
      </trkpt>
      <trkpt lat="45.41842" lon="6.34867">
        <ele>1555.3</ele>
        <time>2013-08-07T12:34:18Z</time>
      </trkpt>
      <trkpt lat="45.4186" lon="6.34876">
        <ele>1560.33</ele>
        <time>2013-08-07T12:34:44Z</time>
      </trkpt>
      <trkpt lat="45.41876" lon="6.34889">
        <ele>1565.45</ele>
        <time>2013-08-07T12:35:11Z</time>
      </trkpt>
      <trkpt lat="45.41892" lon="6.34901">
        <ele>1570.34</ele>
        <time>2013-08-07T12:35:37Z</time>
      </trkpt>
      <trkpt lat="45.41908" lon="6.34914">
        <ele>1575.28</ele>
        <time>2013-08-07T12:36:08Z</time>
      </trkpt>
      <trkpt lat="45.41924" lon="6.34928">
        <ele>1579.46</ele>
        <time>2013-08-07T12:36:44Z</time>
      </trkpt>
      <trkpt lat="45.41937" lon="6.34946">
        <ele>1583.55</ele>
        <time>2013-08-07T12:37:03Z</time>
      </trkpt>
      <trkpt lat="45.41954" lon="6.34957">
        <ele>1587.32</ele>
        <time>2013-08-07T12:37:24Z</time>
      </trkpt>
      <trkpt lat="45.41973" lon="6.34958">
        <ele>1591.39</ele>
        <time>2013-08-07T12:37:46Z</time>
      </trkpt>
      <trkpt lat="45.41989" lon="6.34972">
        <ele>1594.95</ele>
        <time>2013-08-07T12:38:05Z</time>
      </trkpt>
      <trkpt lat="45.41996" lon="6.34948">
        <ele>1598.64</ele>
        <time>2013-08-07T12:38:32Z</time>
      </trkpt>
      <trkpt lat="45.41999" lon="6.34921">
        <ele>1601.13</ele>
        <time>2013-08-07T12:38:45Z</time>
      </trkpt>
      <trkpt lat="45.42" lon="6.34895">
        <ele>1603.99</ele>
        <time>2013-08-07T12:39:00Z</time>
      </trkpt>
      <trkpt lat="45.42004" lon="6.34869">
        <ele>1606.52</ele>
        <time>2013-08-07T12:39:15Z</time>
      </trkpt>
      <trkpt lat="45.42009" lon="6.34844">
        <ele>1609.25</ele>
        <time>2013-08-07T12:39:40Z</time>
      </trkpt>
      <trkpt lat="45.41998" lon="6.34823">
        <ele>1612.54</ele>
        <time>2013-08-07T12:40:02Z</time>
      </trkpt>
      <trkpt lat="45.41987" lon="6.34802">
        <ele>1616.65</ele>
        <time>2013-08-07T12:40:30Z</time>
      </trkpt>
      <trkpt lat="45.4198" lon="6.34779">
        <ele>1619.29</ele>
        <time>2013-08-07T12:40:41Z</time>
      </trkpt>
      <trkpt lat="45.41978" lon="6.34752">
        <ele>1625.38</ele>
        <time>2013-08-07T12:41:12Z</time>
      </trkpt>
      <trkpt lat="45.41982" lon="6.34726">
        <ele>1627.06</ele>
        <time>2013-08-07T12:41:38Z</time>
      </trkpt>
      <trkpt lat="45.41979" lon="6.34699">
        <ele>1630.49</ele>
        <time>2013-08-07T12:42:05Z</time>
      </trkpt>
      <trkpt lat="45.41968" lon="6.34673">
        <ele>1631.12</ele>
        <time>2013-08-07T12:42:13Z</time>
      </trkpt>
      <trkpt lat="45.41965" lon="6.34646">
        <ele>1631.56</ele>
        <time>2013-08-07T12:42:26Z</time>
      </trkpt>
      <trkpt lat="45.41959" lon="6.34621">
        <ele>1632.54</ele>
        <time>2013-08-07T12:42:40Z</time>
      </trkpt>
      <trkpt lat="45.41953" lon="6.34596">
        <ele>1633.25</ele>
        <time>2013-08-07T12:42:51Z</time>
      </trkpt>
      <trkpt lat="45.41947" lon="6.34571">
        <ele>1634.76</ele>
        <time>2013-08-07T12:43:05Z</time>
      </trkpt>
      <trkpt lat="45.41945" lon="6.34544">
        <ele>1635.93</ele>
        <time>2013-08-07T12:43:16Z</time>
      </trkpt>
      <trkpt lat="45.41896" lon="6.34004">
        <ele>1667.19</ele>
        <time>2013-08-07T12:48:11Z</time>
      </trkpt>
      <trkpt lat="45.41881" lon="6.33985">
        <ele>1677.35</ele>
        <time>2013-08-07T12:48:31Z</time>
      </trkpt>
      <trkpt lat="45.41865" lon="6.3397">
        <ele>1671.78</ele>
        <time>2013-08-07T12:49:05Z</time>
      </trkpt>
      <trkpt lat="45.41848" lon="6.33964">
        <ele>1674.19</ele>
        <time>2013-08-07T12:49:25Z</time>
      </trkpt>
      <trkpt lat="45.41832" lon="6.33949">
        <ele>1680.02</ele>
        <time>2013-08-07T12:49:59Z</time>
      </trkpt>
      <trkpt lat="45.4182" lon="6.33929">
        <ele>1683.43</ele>
        <time>2013-08-07T12:50:20Z</time>
      </trkpt>
      <trkpt lat="45.41806" lon="6.33913">
        <ele>1685.86</ele>
        <time>2013-08-07T12:50:45Z</time>
      </trkpt>
      <trkpt lat="45.4179" lon="6.339">
        <ele>1688.41</ele>
        <time>2013-08-07T12:51:02Z</time>
      </trkpt>
      <trkpt lat="45.41772" lon="6.33891">
        <ele>1692.75</ele>
        <time>2013-08-07T12:51:32Z</time>
      </trkpt>
      <trkpt lat="45.41757" lon="6.33877">
        <ele>1695.55</ele>
        <time>2013-08-07T12:51:53Z</time>
      </trkpt>
      <trkpt lat="45.41747" lon="6.33856">
        <ele>1698.79</ele>
        <time>2013-08-07T12:52:12Z</time>
      </trkpt>
      <trkpt lat="45.4173" lon="6.33843">
        <ele>1702.84</ele>
        <time>2013-08-07T12:52:42Z</time>
      </trkpt>
      <trkpt lat="45.41721" lon="6.33821">
        <ele>1707.65</ele>
        <time>2013-08-07T12:53:08Z</time>
      </trkpt>
      <trkpt lat="45.4171" lon="6.33798">
        <ele>1709.81</ele>
        <time>2013-08-07T12:53:39Z</time>
      </trkpt>
      <trkpt lat="45.41698" lon="6.33777">
        <ele>1711.27</ele>
        <time>2013-08-07T12:53:50Z</time>
      </trkpt>
      <trkpt lat="45.41682" lon="6.3376">
        <ele>1712.19</ele>
        <time>2013-08-07T12:53:55Z</time>
      </trkpt>
      <trkpt lat="45.41669" lon="6.3374">
        <ele>1713.18</ele>
        <time>2013-08-07T12:53:58Z</time>
      </trkpt>
      <trkpt lat="45.41663" lon="6.33707">
        <ele>1713.41</ele>
        <time>2013-08-07T12:54:02Z</time>
      </trkpt>
      <trkpt lat="45.4166" lon="6.33678">
        <ele>1712.67</ele>
        <time>2013-08-07T12:54:05Z</time>
      </trkpt>
      <trkpt lat="45.4165" lon="6.33647">
        <ele>1711.71</ele>
        <time>2013-08-07T12:54:08Z</time>
      </trkpt>
      <trkpt lat="45.41644" lon="6.3362">
        <ele>1710.54</ele>
        <time>2013-08-07T12:54:11Z</time>
      </trkpt>
      <trkpt lat="45.41644" lon="6.33587">
        <ele>1708.32</ele>
        <time>2013-08-07T12:54:15Z</time>
      </trkpt>
      <trkpt lat="45.41646" lon="6.33554">
        <ele>1706.68</ele>
        <time>2013-08-07T12:54:18Z</time>
      </trkpt>
      <trkpt lat="45.41649" lon="6.33524">
        <ele>1705</ele>
        <time>2013-08-07T12:54:21Z</time>
      </trkpt>
      <trkpt lat="45.41653" lon="6.33496">
        <ele>1703.61</ele>
        <time>2013-08-07T12:54:24Z</time>
      </trkpt>
      <trkpt lat="45.41658" lon="6.33464">
        <ele>1701.89</ele>
        <time>2013-08-07T12:54:28Z</time>
      </trkpt>
      <trkpt lat="45.41653" lon="6.33436">
        <ele>1699.19</ele>
        <time>2013-08-07T12:54:33Z</time>
      </trkpt>
      <trkpt lat="45.41646" lon="6.33409">
        <ele>1693.71</ele>
        <time>2013-08-07T12:54:38Z</time>
      </trkpt>
      <trkpt lat="45.41641" lon="6.33382">
        <ele>1688.84</ele>
        <time>2013-08-07T12:54:43Z</time>
      </trkpt>
      <trkpt lat="45.41641" lon="6.33352">
        <ele>1688.21</ele>
        <time>2013-08-07T12:54:48Z</time>
      </trkpt>
      <trkpt lat="45.41644" lon="6.33326">
        <ele>1690.08</ele>
        <time>2013-08-07T12:54:53Z</time>
      </trkpt>
      <trkpt lat="45.4165" lon="6.33296">
        <ele>1691.18</ele>
        <time>2013-08-07T12:54:58Z</time>
      </trkpt>
      <trkpt lat="45.41657" lon="6.33271">
        <ele>1692.46</ele>
        <time>2013-08-07T12:55:02Z</time>
      </trkpt>
      <trkpt lat="45.41654" lon="6.33245">
        <ele>1693.05</ele>
        <time>2013-08-07T12:55:09Z</time>
      </trkpt>
      <trkpt lat="45.41636" lon="6.33233">
        <ele>1692.62</ele>
        <time>2013-08-07T12:55:19Z</time>
      </trkpt>
      <trkpt lat="45.41617" lon="6.33219">
        <ele>1692.23</ele>
        <time>2013-08-07T12:55:25Z</time>
      </trkpt>
      <trkpt lat="45.41604" lon="6.33198">
        <ele>1692.35</ele>
        <time>2013-08-07T12:55:32Z</time>
      </trkpt>
      <trkpt lat="45.41589" lon="6.33184">
        <ele>1692.69</ele>
        <time>2013-08-07T12:55:37Z</time>
      </trkpt>
      <trkpt lat="45.41575" lon="6.33166">
        <ele>1693.05</ele>
        <time>2013-08-07T12:55:42Z</time>
      </trkpt>
      <trkpt lat="45.41562" lon="6.33144">
        <ele>1693.76</ele>
        <time>2013-08-07T12:55:47Z</time>
      </trkpt>
      <trkpt lat="45.41544" lon="6.33131">
        <ele>1694.44</ele>
        <time>2013-08-07T12:55:54Z</time>
      </trkpt>
      <trkpt lat="45.4153" lon="6.33111">
        <ele>1694.82</ele>
        <time>2013-08-07T12:56:00Z</time>
      </trkpt>
      <trkpt lat="45.41516" lon="6.33093">
        <ele>1694.46</ele>
        <time>2013-08-07T12:56:07Z</time>
      </trkpt>
      <trkpt lat="45.41495" lon="6.33091">
        <ele>1694.32</ele>
        <time>2013-08-07T12:56:13Z</time>
      </trkpt>
      <trkpt lat="45.41477" lon="6.33086">
        <ele>1694.35</ele>
        <time>2013-08-07T12:56:18Z</time>
      </trkpt>
      <trkpt lat="45.41457" lon="6.33072">
        <ele>1694.91</ele>
        <time>2013-08-07T12:56:24Z</time>
      </trkpt>
      <trkpt lat="45.41441" lon="6.3306">
        <ele>1695.64</ele>
        <time>2013-08-07T12:56:29Z</time>
      </trkpt>
      <trkpt lat="45.4142" lon="6.33058">
        <ele>1695.96</ele>
        <time>2013-08-07T12:56:34Z</time>
      </trkpt>
      <trkpt lat="45.414" lon="6.33059">
        <ele>1695.12</ele>
        <time>2013-08-07T12:56:39Z</time>
      </trkpt>
      <trkpt lat="45.4138" lon="6.33064">
        <ele>1694.48</ele>
        <time>2013-08-07T12:56:45Z</time>
      </trkpt>
      <trkpt lat="45.4136" lon="6.3306">
        <ele>1694.72</ele>
        <time>2013-08-07T12:56:52Z</time>
      </trkpt>
      <trkpt lat="45.41337" lon="6.33054">
        <ele>1695.06</ele>
        <time>2013-08-07T12:56:57Z</time>
      </trkpt>
      <trkpt lat="45.41318" lon="6.33047">
        <ele>1695.07</ele>
        <time>2013-08-07T12:57:03Z</time>
      </trkpt>
      <trkpt lat="45.41297" lon="6.33042">
        <ele>1694.68</ele>
        <time>2013-08-07T12:57:09Z</time>
      </trkpt>
      <trkpt lat="45.41275" lon="6.33041">
        <ele>1694.15</ele>
        <time>2013-08-07T12:57:14Z</time>
      </trkpt>
      <trkpt lat="45.41255" lon="6.3304">
        <ele>1694.12</ele>
        <time>2013-08-07T12:57:18Z</time>
      </trkpt>
      <trkpt lat="45.41234" lon="6.33036">
        <ele>1694.69</ele>
        <time>2013-08-07T12:57:22Z</time>
      </trkpt>
      <trkpt lat="45.41212" lon="6.33026">
        <ele>1693.36</ele>
        <time>2013-08-07T12:57:26Z</time>
      </trkpt>
      <trkpt lat="45.41199" lon="6.33007">
        <ele>1692.49</ele>
        <time>2013-08-07T12:57:30Z</time>
      </trkpt>
      <trkpt lat="45.41199" lon="6.3298">
        <ele>1688.11</ele>
        <time>2013-08-07T13:04:41Z</time>
      </trkpt>
      <trkpt lat="45.41184" lon="6.32963">
        <ele>1686.49</ele>
        <time>2013-08-07T13:04:48Z</time>
      </trkpt>
      <trkpt lat="45.4117" lon="6.32945">
        <ele>1686.09</ele>
        <time>2013-08-07T13:04:54Z</time>
      </trkpt>
      <trkpt lat="45.41158" lon="6.32925">
        <ele>1686.28</ele>
        <time>2013-08-07T13:05:00Z</time>
      </trkpt>
      <trkpt lat="45.41141" lon="6.3291">
        <ele>1686.74</ele>
        <time>2013-08-07T13:05:06Z</time>
      </trkpt>
      <trkpt lat="45.41124" lon="6.32895">
        <ele>1687.44</ele>
        <time>2013-08-07T13:05:13Z</time>
      </trkpt>
      <trkpt lat="45.4111" lon="6.32875">
        <ele>1688.28</ele>
        <time>2013-08-07T13:05:20Z</time>
      </trkpt>
      <trkpt lat="45.41098" lon="6.32852">
        <ele>1689.21</ele>
        <time>2013-08-07T13:05:27Z</time>
      </trkpt>
      <trkpt lat="45.4109" lon="6.32826">
        <ele>1689.99</ele>
        <time>2013-08-07T13:05:34Z</time>
      </trkpt>
      <trkpt lat="45.41083" lon="6.328">
        <ele>1690.52</ele>
        <time>2013-08-07T13:05:40Z</time>
      </trkpt>
      <trkpt lat="45.41081" lon="6.32774">
        <ele>1691.08</ele>
        <time>2013-08-07T13:05:46Z</time>
      </trkpt>
      <trkpt lat="45.41077" lon="6.32744">
        <ele>1691.82</ele>
        <time>2013-08-07T13:05:52Z</time>
      </trkpt>
      <trkpt lat="45.41073" lon="6.32718">
        <ele>1692.54</ele>
        <time>2013-08-07T13:05:57Z</time>
      </trkpt>
      <trkpt lat="45.41067" lon="6.32694">
        <ele>1693.1</ele>
        <time>2013-08-07T13:06:02Z</time>
      </trkpt>
      <trkpt lat="45.41054" lon="6.32675">
        <ele>1693.82</ele>
        <time>2013-08-07T13:06:08Z</time>
      </trkpt>
      <trkpt lat="45.41046" lon="6.32649">
        <ele>1694.23</ele>
        <time>2013-08-07T13:06:13Z</time>
      </trkpt>
      <trkpt lat="45.41043" lon="6.32623">
        <ele>1694.78</ele>
        <time>2013-08-07T13:06:19Z</time>
      </trkpt>
      <trkpt lat="45.4105" lon="6.32598">
        <ele>1695.34</ele>
        <time>2013-08-07T13:06:25Z</time>
      </trkpt>
      <trkpt lat="45.41053" lon="6.32571">
        <ele>1695.9</ele>
        <time>2013-08-07T13:06:30Z</time>
      </trkpt>
      <trkpt lat="45.41055" lon="6.32543">
        <ele>1696.31</ele>
        <time>2013-08-07T13:06:37Z</time>
      </trkpt>
      <trkpt lat="45.41052" lon="6.32517">
        <ele>1695.84</ele>
        <time>2013-08-07T13:06:48Z</time>
      </trkpt>
      <trkpt lat="45.41047" lon="6.32492">
        <ele>1695.7</ele>
        <time>2013-08-07T13:07:00Z</time>
      </trkpt>
      <trkpt lat="45.41042" lon="6.32466">
        <ele>1696.82</ele>
        <time>2013-08-07T13:07:13Z</time>
      </trkpt>
      <trkpt lat="45.41038" lon="6.32439">
        <ele>1698.5</ele>
        <time>2013-08-07T13:07:26Z</time>
      </trkpt>
      <trkpt lat="45.41038" lon="6.32411">
        <ele>1700.09</ele>
        <time>2013-08-07T13:07:40Z</time>
      </trkpt>
      <trkpt lat="45.41038" lon="6.32385">
        <ele>1701.01</ele>
        <time>2013-08-07T13:07:53Z</time>
      </trkpt>
      <trkpt lat="45.41032" lon="6.32359">
        <ele>1701.47</ele>
        <time>2013-08-07T13:08:06Z</time>
      </trkpt>
      <trkpt lat="45.41018" lon="6.3234">
        <ele>1701.96</ele>
        <time>2013-08-07T13:08:19Z</time>
      </trkpt>
      <trkpt lat="45.41002" lon="6.32327">
        <ele>1703.6</ele>
        <time>2013-08-07T13:08:30Z</time>
      </trkpt>
      <trkpt lat="45.40984" lon="6.32321">
        <ele>1706.59</ele>
        <time>2013-08-07T13:08:40Z</time>
      </trkpt>
      <trkpt lat="45.41002" lon="6.32318">
        <ele>1716.85</ele>
        <time>2013-08-07T13:09:15Z</time>
      </trkpt>
      <trkpt lat="45.4102" lon="6.32327">
        <ele>1720.02</ele>
        <time>2013-08-07T13:09:28Z</time>
      </trkpt>
      <trkpt lat="45.41037" lon="6.32336">
        <ele>1722.11</ele>
        <time>2013-08-07T13:09:39Z</time>
      </trkpt>
      <trkpt lat="45.41051" lon="6.32351">
        <ele>1723.09</ele>
        <time>2013-08-07T13:09:50Z</time>
      </trkpt>
      <trkpt lat="45.41045" lon="6.32327">
        <ele>1726.64</ele>
        <time>2013-08-07T13:10:13Z</time>
      </trkpt>
      <trkpt lat="45.41036" lon="6.32304">
        <ele>1728.32</ele>
        <time>2013-08-07T13:10:26Z</time>
      </trkpt>
      <trkpt lat="45.41028" lon="6.32279">
        <ele>1729.72</ele>
        <time>2013-08-07T13:10:38Z</time>
      </trkpt>
      <trkpt lat="45.41016" lon="6.32259">
        <ele>1731.93</ele>
        <time>2013-08-07T13:10:49Z</time>
      </trkpt>
      <trkpt lat="45.40998" lon="6.32244">
        <ele>1735.7</ele>
        <time>2013-08-07T13:11:00Z</time>
      </trkpt>
      <trkpt lat="45.40984" lon="6.32227">
        <ele>1739.24</ele>
        <time>2013-08-07T13:11:10Z</time>
      </trkpt>
      <trkpt lat="45.40968" lon="6.32213">
        <ele>1741.59</ele>
        <time>2013-08-07T13:11:20Z</time>
      </trkpt>
      <trkpt lat="45.40987" lon="6.32215">
        <ele>1747.46</ele>
        <time>2013-08-07T13:11:59Z</time>
      </trkpt>
      <trkpt lat="45.41005" lon="6.32225">
        <ele>1750.53</ele>
        <time>2013-08-07T13:12:13Z</time>
      </trkpt>
      <trkpt lat="45.41023" lon="6.32226">
        <ele>1752.59</ele>
        <time>2013-08-07T13:12:27Z</time>
      </trkpt>
      <trkpt lat="45.41042" lon="6.32229">
        <ele>1755.45</ele>
        <time>2013-08-07T13:12:43Z</time>
      </trkpt>
      <trkpt lat="45.41061" lon="6.32229">
        <ele>1758.17</ele>
        <time>2013-08-07T13:12:59Z</time>
      </trkpt>
      <trkpt lat="45.4108" lon="6.32226">
        <ele>1759.92</ele>
        <time>2013-08-07T13:13:13Z</time>
      </trkpt>
      <trkpt lat="45.41097" lon="6.32235">
        <ele>1761.08</ele>
        <time>2013-08-07T13:13:26Z</time>
      </trkpt>
      <trkpt lat="45.41113" lon="6.32248">
        <ele>1762.16</ele>
        <time>2013-08-07T13:13:40Z</time>
      </trkpt>
      <trkpt lat="45.41129" lon="6.32262">
        <ele>1763.07</ele>
        <time>2013-08-07T13:13:54Z</time>
      </trkpt>
      <trkpt lat="45.41142" lon="6.32281">
        <ele>1763.99</ele>
        <time>2013-08-07T13:14:09Z</time>
      </trkpt>
      <trkpt lat="45.41151" lon="6.32305">
        <ele>1765.17</ele>
        <time>2013-08-07T13:14:26Z</time>
      </trkpt>
      <trkpt lat="45.41154" lon="6.32332">
        <ele>1767.03</ele>
        <time>2013-08-07T13:14:40Z</time>
      </trkpt>
      <trkpt lat="45.41156" lon="6.32357">
        <ele>1768.13</ele>
        <time>2013-08-07T13:14:55Z</time>
      </trkpt>
      <trkpt lat="45.41158" lon="6.32383">
        <ele>1769.9</ele>
        <time>2013-08-07T13:15:11Z</time>
      </trkpt>
      <trkpt lat="45.4116" lon="6.32409">
        <ele>1771.89</ele>
        <time>2013-08-07T13:15:25Z</time>
      </trkpt>
      <trkpt lat="45.41161" lon="6.32436">
        <ele>1773.46</ele>
        <time>2013-08-07T13:15:40Z</time>
      </trkpt>
      <trkpt lat="45.41165" lon="6.32461">
        <ele>1777.21</ele>
        <time>2013-08-07T13:15:56Z</time>
      </trkpt>
      <trkpt lat="45.41165" lon="6.32487">
        <ele>1779.53</ele>
        <time>2013-08-07T13:16:10Z</time>
      </trkpt>
      <trkpt lat="45.41164" lon="6.32513">
        <ele>1782.03</ele>
        <time>2013-08-07T13:16:26Z</time>
      </trkpt>
      <trkpt lat="45.41176" lon="6.32534">
        <ele>1786.24</ele>
        <time>2013-08-07T13:16:41Z</time>
      </trkpt>
      <trkpt lat="45.41187" lon="6.32555">
        <ele>1791.1</ele>
        <time>2013-08-07T13:16:56Z</time>
      </trkpt>
      <trkpt lat="45.41197" lon="6.32577">
        <ele>1796.54</ele>
        <time>2013-08-07T13:17:12Z</time>
      </trkpt>
      <trkpt lat="45.41206" lon="6.32601">
        <ele>1801.14</ele>
        <time>2013-08-07T13:17:26Z</time>
      </trkpt>
      <trkpt lat="45.41217" lon="6.32622">
        <ele>1802.89</ele>
        <time>2013-08-07T13:17:40Z</time>
      </trkpt>
      <trkpt lat="45.41225" lon="6.32645">
        <ele>1804.51</ele>
        <time>2013-08-07T13:17:53Z</time>
      </trkpt>
      <trkpt lat="45.41236" lon="6.32668">
        <ele>1806.47</ele>
        <time>2013-08-07T13:18:04Z</time>
      </trkpt>
      <trkpt lat="45.41248" lon="6.32689">
        <ele>1808.86</ele>
        <time>2013-08-07T13:18:15Z</time>
      </trkpt>
      <trkpt lat="45.41262" lon="6.32709">
        <ele>1811.9</ele>
        <time>2013-08-07T13:18:27Z</time>
      </trkpt>
      <trkpt lat="45.41276" lon="6.32725">
        <ele>1813.42</ele>
        <time>2013-08-07T13:18:38Z</time>
      </trkpt>
      <trkpt lat="45.41293" lon="6.32738">
        <ele>1814.79</ele>
        <time>2013-08-07T13:18:51Z</time>
      </trkpt>
      <trkpt lat="45.4131" lon="6.32747">
        <ele>1817.34</ele>
        <time>2013-08-07T13:19:05Z</time>
      </trkpt>
      <trkpt lat="45.41327" lon="6.32737">
        <ele>1819.76</ele>
        <time>2013-08-07T13:19:18Z</time>
      </trkpt>
      <trkpt lat="45.41342" lon="6.32722">
        <ele>1820.69</ele>
        <time>2013-08-07T13:19:32Z</time>
      </trkpt>
      <trkpt lat="45.41358" lon="6.3271">
        <ele>1821.62</ele>
        <time>2013-08-07T13:19:47Z</time>
      </trkpt>
      <trkpt lat="45.41374" lon="6.32697">
        <ele>1822.88</ele>
        <time>2013-08-07T13:20:01Z</time>
      </trkpt>
      <trkpt lat="45.41389" lon="6.32683">
        <ele>1824.52</ele>
        <time>2013-08-07T13:20:17Z</time>
      </trkpt>
      <trkpt lat="45.41456" lon="6.32702">
        <ele>1840.98</ele>
        <time>2013-08-07T13:21:19Z</time>
      </trkpt>
      <trkpt lat="45.41478" lon="6.32703">
        <ele>1850.35</ele>
        <time>2013-08-07T13:21:32Z</time>
      </trkpt>
      <trkpt lat="45.41497" lon="6.32706">
        <ele>1843.73</ele>
        <time>2013-08-07T13:21:44Z</time>
      </trkpt>
      <trkpt lat="45.41515" lon="6.32707">
        <ele>1844.82</ele>
        <time>2013-08-07T13:21:58Z</time>
      </trkpt>
      <trkpt lat="45.41534" lon="6.32703">
        <ele>1845.57</ele>
        <time>2013-08-07T13:22:11Z</time>
      </trkpt>
      <trkpt lat="45.41552" lon="6.32698">
        <ele>1845.98</ele>
        <time>2013-08-07T13:22:24Z</time>
      </trkpt>
      <trkpt lat="45.4157" lon="6.327">
        <ele>1846.71</ele>
        <time>2013-08-07T13:22:37Z</time>
      </trkpt>
      <trkpt lat="45.41588" lon="6.32704">
        <ele>1847.93</ele>
        <time>2013-08-07T13:22:52Z</time>
      </trkpt>
      <trkpt lat="45.41607" lon="6.32705">
        <ele>1849.76</ele>
        <time>2013-08-07T13:23:06Z</time>
      </trkpt>
      <trkpt lat="45.41624" lon="6.32716">
        <ele>1851.89</ele>
        <time>2013-08-07T13:23:20Z</time>
      </trkpt>
      <trkpt lat="45.41641" lon="6.32728">
        <ele>1853.62</ele>
        <time>2013-08-07T13:23:35Z</time>
      </trkpt>
      <trkpt lat="45.41657" lon="6.32742">
        <ele>1855.08</ele>
        <time>2013-08-07T13:23:49Z</time>
      </trkpt>
      <trkpt lat="45.41671" lon="6.32759">
        <ele>1856.8</ele>
        <time>2013-08-07T13:24:05Z</time>
      </trkpt>
      <trkpt lat="45.41688" lon="6.32773">
        <ele>1858.9</ele>
        <time>2013-08-07T13:24:21Z</time>
      </trkpt>
      <trkpt lat="45.41704" lon="6.32786">
        <ele>1861.37</ele>
        <time>2013-08-07T13:24:36Z</time>
      </trkpt>
      <trkpt lat="45.41721" lon="6.32797">
        <ele>1863.53</ele>
        <time>2013-08-07T13:24:50Z</time>
      </trkpt>
      <trkpt lat="45.41739" lon="6.32807">
        <ele>1865.54</ele>
        <time>2013-08-07T13:25:05Z</time>
      </trkpt>
      <trkpt lat="45.41755" lon="6.3282">
        <ele>1867.28</ele>
        <time>2013-08-07T13:25:20Z</time>
      </trkpt>
      <trkpt lat="45.41772" lon="6.32828">
        <ele>1869.09</ele>
        <time>2013-08-07T13:25:34Z</time>
      </trkpt>
      <trkpt lat="45.41787" lon="6.32844">
        <ele>1871.05</ele>
        <time>2013-08-07T13:25:48Z</time>
      </trkpt>
      <trkpt lat="45.41803" lon="6.32859">
        <ele>1873.61</ele>
        <time>2013-08-07T13:26:04Z</time>
      </trkpt>
      <trkpt lat="45.41821" lon="6.32869">
        <ele>1875.51</ele>
        <time>2013-08-07T13:26:18Z</time>
      </trkpt>
      <trkpt lat="45.4184" lon="6.32867">
        <ele>1877.71</ele>
        <time>2013-08-07T13:26:34Z</time>
      </trkpt>
      <trkpt lat="45.41858" lon="6.32863">
        <ele>1879.83</ele>
        <time>2013-08-07T13:26:49Z</time>
      </trkpt>
      <trkpt lat="45.41876" lon="6.32867">
        <ele>1881.75</ele>
        <time>2013-08-07T13:27:04Z</time>
      </trkpt>
      <trkpt lat="45.41894" lon="6.32874">
        <ele>1884.53</ele>
        <time>2013-08-07T13:27:19Z</time>
      </trkpt>
      <trkpt lat="45.41912" lon="6.32877">
        <ele>1886.82</ele>
        <time>2013-08-07T13:27:32Z</time>
      </trkpt>
      <trkpt lat="45.4193" lon="6.32884">
        <ele>1888.68</ele>
        <time>2013-08-07T13:27:46Z</time>
      </trkpt>
      <trkpt lat="45.41948" lon="6.32886">
        <ele>1891.09</ele>
        <time>2013-08-07T13:28:02Z</time>
      </trkpt>
      <trkpt lat="45.41967" lon="6.32885">
        <ele>1893.21</ele>
        <time>2013-08-07T13:28:17Z</time>
      </trkpt>
      <trkpt lat="45.41986" lon="6.32887">
        <ele>1895.26</ele>
        <time>2013-08-07T13:28:32Z</time>
      </trkpt>
      <trkpt lat="45.42004" lon="6.32892">
        <ele>1897.24</ele>
        <time>2013-08-07T13:28:46Z</time>
      </trkpt>
      <trkpt lat="45.42022" lon="6.32896">
        <ele>1899.2</ele>
        <time>2013-08-07T13:29:00Z</time>
      </trkpt>
      <trkpt lat="45.42036" lon="6.32915">
        <ele>1901.31</ele>
        <time>2013-08-07T13:29:15Z</time>
      </trkpt>
      <trkpt lat="45.4205" lon="6.32931">
        <ele>1903.55</ele>
        <time>2013-08-07T13:29:29Z</time>
      </trkpt>
      <trkpt lat="45.42067" lon="6.32941">
        <ele>1905.67</ele>
        <time>2013-08-07T13:29:42Z</time>
      </trkpt>
      <trkpt lat="45.42085" lon="6.3295">
        <ele>1907.95</ele>
        <time>2013-08-07T13:29:56Z</time>
      </trkpt>
      <trkpt lat="45.42103" lon="6.32951">
        <ele>1909.95</ele>
        <time>2013-08-07T13:30:09Z</time>
      </trkpt>
      <trkpt lat="45.42121" lon="6.32957">
        <ele>1911.85</ele>
        <time>2013-08-07T13:30:22Z</time>
      </trkpt>
      <trkpt lat="45.42139" lon="6.32968">
        <ele>1913.79</ele>
        <time>2013-08-07T13:30:36Z</time>
      </trkpt>
      <trkpt lat="45.42157" lon="6.32977">
        <ele>1915.58</ele>
        <time>2013-08-07T13:30:50Z</time>
      </trkpt>
      <trkpt lat="45.4217" lon="6.32996">
        <ele>1917.04</ele>
        <time>2013-08-07T13:31:02Z</time>
      </trkpt>
      <trkpt lat="45.42184" lon="6.33016">
        <ele>1918.43</ele>
        <time>2013-08-07T13:31:13Z</time>
      </trkpt>
      <trkpt lat="45.42191" lon="6.3304">
        <ele>1919.78</ele>
        <time>2013-08-07T13:31:24Z</time>
      </trkpt>
      <trkpt lat="45.42195" lon="6.33065">
        <ele>1920.93</ele>
        <time>2013-08-07T13:31:35Z</time>
      </trkpt>
      <trkpt lat="45.42201" lon="6.33091">
        <ele>1921.82</ele>
        <time>2013-08-07T13:31:44Z</time>
      </trkpt>
      <trkpt lat="45.42202" lon="6.33117">
        <ele>1922.29</ele>
        <time>2013-08-07T13:31:50Z</time>
      </trkpt>
      <trkpt lat="45.422" lon="6.33144">
        <ele>1926.59</ele>
        <time>2013-08-07T13:33:19Z</time>
      </trkpt>
      <trkpt lat="45.42201" lon="6.33171">
        <ele>1926.86</ele>
        <time>2013-08-07T13:33:26Z</time>
      </trkpt>
      <trkpt lat="45.42202" lon="6.33201">
        <ele>1927.28</ele>
        <time>2013-08-07T13:33:33Z</time>
      </trkpt>
      <trkpt lat="45.42201" lon="6.3323">
        <ele>1927.88</ele>
        <time>2013-08-07T13:33:40Z</time>
      </trkpt>
      <trkpt lat="45.42198" lon="6.33259">
        <ele>1928.46</ele>
        <time>2013-08-07T13:33:47Z</time>
      </trkpt>
      <trkpt lat="45.42202" lon="6.33287">
        <ele>1930.27</ele>
        <time>2013-08-07T13:33:52Z</time>
      </trkpt>
      <trkpt lat="45.42214" lon="6.33307">
        <ele>1932.23</ele>
        <time>2013-08-07T13:33:57Z</time>
      </trkpt>
      <trkpt lat="45.42233" lon="6.33319">
        <ele>1933.37</ele>
        <time>2013-08-07T13:34:03Z</time>
      </trkpt>
      <trkpt lat="45.42252" lon="6.33313">
        <ele>1934.1</ele>
        <time>2013-08-07T13:34:16Z</time>
      </trkpt>
      <trkpt lat="45.42269" lon="6.33307">
        <ele>1935.01</ele>
        <time>2013-08-07T13:34:30Z</time>
      </trkpt>
      <trkpt lat="45.42287" lon="6.33299">
        <ele>1936.28</ele>
        <time>2013-08-07T13:34:44Z</time>
      </trkpt>
      <trkpt lat="45.42306" lon="6.33293">
        <ele>1937.77</ele>
        <time>2013-08-07T13:34:58Z</time>
      </trkpt>
      <trkpt lat="45.42323" lon="6.33285">
        <ele>1939.08</ele>
        <time>2013-08-07T13:35:11Z</time>
      </trkpt>
      <trkpt lat="45.42342" lon="6.33285">
        <ele>1940.45</ele>
        <time>2013-08-07T13:35:25Z</time>
      </trkpt>
      <trkpt lat="45.4236" lon="6.33286">
        <ele>1941.57</ele>
        <time>2013-08-07T13:35:38Z</time>
      </trkpt>
      <trkpt lat="45.42379" lon="6.3329">
        <ele>1943.25</ele>
        <time>2013-08-07T13:35:51Z</time>
      </trkpt>
      <trkpt lat="45.42398" lon="6.33294">
        <ele>1945.33</ele>
        <time>2013-08-07T13:36:05Z</time>
      </trkpt>
      <trkpt lat="45.42416" lon="6.33295">
        <ele>1947.38</ele>
        <time>2013-08-07T13:36:18Z</time>
      </trkpt>
      <trkpt lat="45.42432" lon="6.33283">
        <ele>1949.73</ele>
        <time>2013-08-07T13:36:32Z</time>
      </trkpt>
      <trkpt lat="45.42438" lon="6.33257">
        <ele>1952.25</ele>
        <time>2013-08-07T13:36:48Z</time>
      </trkpt>
      <trkpt lat="45.42448" lon="6.33234">
        <ele>1954.43</ele>
        <time>2013-08-07T13:37:02Z</time>
      </trkpt>
      <trkpt lat="45.42463" lon="6.33221">
        <ele>1956.7</ele>
        <time>2013-08-07T13:37:16Z</time>
      </trkpt>
      <trkpt lat="45.42482" lon="6.33219">
        <ele>1959.22</ele>
        <time>2013-08-07T13:37:31Z</time>
      </trkpt>
      <trkpt lat="45.42497" lon="6.33235">
        <ele>1961.4</ele>
        <time>2013-08-07T13:37:44Z</time>
      </trkpt>
      <trkpt lat="45.4251" lon="6.33253">
        <ele>1963.12</ele>
        <time>2013-08-07T13:37:55Z</time>
      </trkpt>
      <trkpt lat="45.42525" lon="6.33272">
        <ele>1964.42</ele>
        <time>2013-08-07T13:38:04Z</time>
      </trkpt>
      <trkpt lat="45.42542" lon="6.33285">
        <ele>1965.72</ele>
        <time>2013-08-07T13:38:13Z</time>
      </trkpt>
      <trkpt lat="45.4256" lon="6.33296">
        <ele>1966.96</ele>
        <time>2013-08-07T13:38:22Z</time>
      </trkpt>
      <trkpt lat="45.42574" lon="6.33313">
        <ele>1968.16</ele>
        <time>2013-08-07T13:38:31Z</time>
      </trkpt>
      <trkpt lat="45.42584" lon="6.33335">
        <ele>1969.47</ele>
        <time>2013-08-07T13:38:41Z</time>
      </trkpt>
      <trkpt lat="45.42596" lon="6.33357">
        <ele>1971.05</ele>
        <time>2013-08-07T13:38:52Z</time>
      </trkpt>
      <trkpt lat="45.42605" lon="6.33379">
        <ele>1972.64</ele>
        <time>2013-08-07T13:39:03Z</time>
      </trkpt>
      <trkpt lat="45.42614" lon="6.33402">
        <ele>1974.22</ele>
        <time>2013-08-07T13:39:14Z</time>
      </trkpt>
      <trkpt lat="45.42624" lon="6.33425">
        <ele>1975.94</ele>
        <time>2013-08-07T13:39:26Z</time>
      </trkpt>
      <trkpt lat="45.42633" lon="6.33447">
        <ele>1977.56</ele>
        <time>2013-08-07T13:39:37Z</time>
      </trkpt>
      <trkpt lat="45.42645" lon="6.33468">
        <ele>1979.11</ele>
        <time>2013-08-07T13:39:48Z</time>
      </trkpt>
      <trkpt lat="45.42656" lon="6.3349">
        <ele>1980.69</ele>
        <time>2013-08-07T13:39:59Z</time>
      </trkpt>
      <trkpt lat="45.42668" lon="6.3351">
        <ele>1982.17</ele>
        <time>2013-08-07T13:40:09Z</time>
      </trkpt>
      <trkpt lat="45.42682" lon="6.33529">
        <ele>1983.66</ele>
        <time>2013-08-07T13:40:19Z</time>
      </trkpt>
      <trkpt lat="45.42693" lon="6.3355">
        <ele>1985.2</ele>
        <time>2013-08-07T13:40:29Z</time>
      </trkpt>
      <trkpt lat="45.427" lon="6.33575">
        <ele>1987.12</ele>
        <time>2013-08-07T13:40:40Z</time>
      </trkpt>
      <trkpt lat="45.42697" lon="6.33602">
        <ele>1989.33</ele>
        <time>2013-08-07T13:40:52Z</time>
      </trkpt>
      <trkpt lat="45.42689" lon="6.33625">
        <ele>1991.16</ele>
        <time>2013-08-07T13:41:03Z</time>
      </trkpt>
      <trkpt lat="45.42683" lon="6.33651">
        <ele>1992.79</ele>
        <time>2013-08-07T13:41:14Z</time>
      </trkpt>
      <trkpt lat="45.42681" lon="6.33679">
        <ele>1994.3</ele>
        <time>2013-08-07T13:41:24Z</time>
      </trkpt>
      <trkpt lat="45.42679" lon="6.33705">
        <ele>1995.67</ele>
        <time>2013-08-07T13:41:34Z</time>
      </trkpt>
      <trkpt lat="45.42681" lon="6.33731">
        <ele>1997.04</ele>
        <time>2013-08-07T13:41:44Z</time>
      </trkpt>
      <trkpt lat="45.42684" lon="6.33758">
        <ele>1998.32</ele>
        <time>2013-08-07T13:41:55Z</time>
      </trkpt>
      <trkpt lat="45.42688" lon="6.33784">
        <ele>1999.73</ele>
        <time>2013-08-07T13:42:05Z</time>
      </trkpt>
      <trkpt lat="45.42693" lon="6.33809">
        <ele>2001.07</ele>
        <time>2013-08-07T13:42:15Z</time>
      </trkpt>
      <trkpt lat="45.42698" lon="6.33834">
        <ele>2002.43</ele>
        <time>2013-08-07T13:42:25Z</time>
      </trkpt>
      <trkpt lat="45.42702" lon="6.3386">
        <ele>2003.82</ele>
        <time>2013-08-07T13:42:35Z</time>
      </trkpt>
      <trkpt lat="45.42716" lon="6.33881">
        <ele>2005.35</ele>
        <time>2013-08-07T13:42:46Z</time>
      </trkpt>
      <trkpt lat="45.4273" lon="6.33897">
        <ele>2006.7</ele>
        <time>2013-08-07T13:42:56Z</time>
      </trkpt>
      <trkpt lat="45.42746" lon="6.33913">
        <ele>2007.98</ele>
        <time>2013-08-07T13:43:06Z</time>
      </trkpt>
      <trkpt lat="45.42764" lon="6.33924">
        <ele>2009.14</ele>
        <time>2013-08-07T13:43:16Z</time>
      </trkpt>
      <trkpt lat="45.42783" lon="6.33927">
        <ele>2010.12</ele>
        <time>2013-08-07T13:43:26Z</time>
      </trkpt>
      <trkpt lat="45.42802" lon="6.33932">
        <ele>2010.93</ele>
        <time>2013-08-07T13:43:35Z</time>
      </trkpt>
      <trkpt lat="45.42819" lon="6.33941">
        <ele>2012.02</ele>
        <time>2013-08-07T13:43:46Z</time>
      </trkpt>
      <trkpt lat="45.42838" lon="6.33947">
        <ele>2013.98</ele>
        <time>2013-08-07T13:44:09Z</time>
      </trkpt>
      <trkpt lat="45.42856" lon="6.33952">
        <ele>2015.42</ele>
        <time>2013-08-07T13:44:29Z</time>
      </trkpt>
      <trkpt lat="45.42874" lon="6.33959">
        <ele>2017</ele>
        <time>2013-08-07T13:44:44Z</time>
      </trkpt>
      <trkpt lat="45.42887" lon="6.33977">
        <ele>2018.62</ele>
        <time>2013-08-07T13:44:58Z</time>
      </trkpt>
      <trkpt lat="45.42896" lon="6.34001">
        <ele>2020.48</ele>
        <time>2013-08-07T13:45:13Z</time>
      </trkpt>
      <trkpt lat="45.42902" lon="6.34026">
        <ele>2022.69</ele>
        <time>2013-08-07T13:45:40Z</time>
      </trkpt>
      <trkpt lat="45.42916" lon="6.34042">
        <ele>2026.95</ele>
        <time>2013-08-07T13:46:43Z</time>
      </trkpt>
      <trkpt lat="45.42926" lon="6.34065">
        <ele>2031.42</ele>
        <time>2013-08-07T13:47:12Z</time>
      </trkpt>
      <trkpt lat="45.42937" lon="6.34085">
        <ele>2036.94</ele>
        <time>2013-08-07T13:47:47Z</time>
      </trkpt>
      <trkpt lat="45.42954" lon="6.34096">
        <ele>2044.87</ele>
        <time>2013-08-07T13:48:39Z</time>
      </trkpt>
      <trkpt lat="45.42963" lon="6.34118">
        <ele>2052.72</ele>
        <time>2013-08-07T13:49:19Z</time>
      </trkpt>
      <trkpt lat="45.42979" lon="6.34131">
        <ele>2057.19</ele>
        <time>2013-08-07T13:49:51Z</time>
      </trkpt>
      <trkpt lat="45.42993" lon="6.34148">
        <ele>2062.83</ele>
        <time>2013-08-07T13:50:22Z</time>
      </trkpt>
      <trkpt lat="45.4304" lon="6.34213">
        <ele>2076.1</ele>
        <time>2013-08-07T13:51:46Z</time>
      </trkpt>
      <trkpt lat="45.43051" lon="6.34233">
        <ele>2080.31</ele>
        <time>2013-08-07T13:52:18Z</time>
      </trkpt>
      <trkpt lat="45.43062" lon="6.34253">
        <ele>2084.32</ele>
        <time>2013-08-07T13:52:58Z</time>
      </trkpt>
      <trkpt lat="45.43071" lon="6.34276">
        <ele>2087.8</ele>
        <time>2013-08-07T13:53:24Z</time>
      </trkpt>
      <trkpt lat="45.43081" lon="6.34297">
        <ele>2090.89</ele>
        <time>2013-08-07T13:53:51Z</time>
      </trkpt>
      <trkpt lat="45.43092" lon="6.34318">
        <ele>2093.93</ele>
        <time>2013-08-07T13:54:12Z</time>
      </trkpt>
      <trkpt lat="45.43099" lon="6.34342">
        <ele>2097.2</ele>
        <time>2013-08-07T13:54:33Z</time>
      </trkpt>
      <trkpt lat="45.43105" lon="6.34367">
        <ele>2102</ele>
        <time>2013-08-07T13:55:03Z</time>
      </trkpt>
      <trkpt lat="45.43115" lon="6.34346">
        <ele>2106.15</ele>
        <time>2013-08-07T13:55:34Z</time>
      </trkpt>
      <trkpt lat="45.43125" lon="6.34324">
        <ele>2110.49</ele>
        <time>2013-08-07T13:56:02Z</time>
      </trkpt>
      <trkpt lat="45.43142" lon="6.34333">
        <ele>2117.18</ele>
        <time>2013-08-07T13:56:40Z</time>
      </trkpt>
      <trkpt lat="45.43147" lon="6.34308">
        <ele>2120.84</ele>
        <time>2013-08-07T13:57:11Z</time>
      </trkpt>
      <trkpt lat="45.43156" lon="6.34285">
        <ele>2123.32</ele>
        <time>2013-08-07T13:57:29Z</time>
      </trkpt>
      <trkpt lat="45.43164" lon="6.34263">
        <ele>2125.17</ele>
        <time>2013-08-07T13:57:46Z</time>
      </trkpt>
      <trkpt lat="45.43165" lon="6.34236">
        <ele>2127.14</ele>
        <time>2013-08-07T13:58:05Z</time>
      </trkpt>
      <trkpt lat="45.43164" lon="6.3421">
        <ele>2129.39</ele>
        <time>2013-08-07T13:58:23Z</time>
      </trkpt>
      <trkpt lat="45.4316" lon="6.34184">
        <ele>2134.15</ele>
        <time>2013-08-07T13:59:03Z</time>
      </trkpt>
      <trkpt lat="45.43155" lon="6.34159">
        <ele>2138.2</ele>
        <time>2013-08-07T13:59:32Z</time>
      </trkpt>
      <trkpt lat="45.43155" lon="6.34133">
        <ele>2140.48</ele>
        <time>2013-08-07T13:59:56Z</time>
      </trkpt>
      <trkpt lat="45.43152" lon="6.34107">
        <ele>2144.69</ele>
        <time>2013-08-07T14:00:19Z</time>
      </trkpt>
      <trkpt lat="45.43152" lon="6.34081">
        <ele>2148.48</ele>
        <time>2013-08-07T14:00:43Z</time>
      </trkpt>
      <trkpt lat="45.4315" lon="6.34055">
        <ele>2150.39</ele>
        <time>2013-08-07T14:01:15Z</time>
      </trkpt>
      <trkpt lat="45.4315" lon="6.34028">
        <ele>2153.87</ele>
        <time>2013-08-07T14:02:03Z</time>
      </trkpt>
      <trkpt lat="45.4315" lon="6.34001">
        <ele>2156.53</ele>
        <time>2013-08-07T14:02:24Z</time>
      </trkpt>
      <trkpt lat="45.4316" lon="6.33979">
        <ele>2158.47</ele>
        <time>2013-08-07T14:02:46Z</time>
      </trkpt>
      <trkpt lat="45.43167" lon="6.33954">
        <ele>2160.52</ele>
        <time>2013-08-07T14:03:06Z</time>
      </trkpt>
      <trkpt lat="45.43171" lon="6.33928">
        <ele>2162.54</ele>
        <time>2013-08-07T14:03:27Z</time>
      </trkpt>
      <trkpt lat="45.43171" lon="6.33902">
        <ele>2164</ele>
        <time>2013-08-07T14:03:47Z</time>
      </trkpt>
      <trkpt lat="45.43172" lon="6.33877">
        <ele>2166.67</ele>
        <time>2013-08-07T14:04:22Z</time>
      </trkpt>
      <trkpt lat="45.43177" lon="6.33852">
        <ele>2169.63</ele>
        <time>2013-08-07T14:04:49Z</time>
      </trkpt>
      <trkpt lat="45.43182" lon="6.33826">
        <ele>2171.56</ele>
        <time>2013-08-07T14:05:25Z</time>
      </trkpt>
      <trkpt lat="45.43194" lon="6.33806">
        <ele>2174.32</ele>
        <time>2013-08-07T14:05:50Z</time>
      </trkpt>
      <trkpt lat="45.43205" lon="6.33786">
        <ele>2177.12</ele>
        <time>2013-08-07T14:06:14Z</time>
      </trkpt>
      <trkpt lat="45.43216" lon="6.33765">
        <ele>2178.81</ele>
        <time>2013-08-07T14:06:35Z</time>
      </trkpt>
      <trkpt lat="45.4323" lon="6.33747">
        <ele>2180.44</ele>
        <time>2013-08-07T14:06:59Z</time>
      </trkpt>
      <trkpt lat="45.43237" lon="6.33724">
        <ele>2184.17</ele>
        <time>2013-08-07T14:07:36Z</time>
      </trkpt>
      <trkpt lat="45.4325" lon="6.33705">
        <ele>2188.76</ele>
        <time>2013-08-07T14:08:21Z</time>
      </trkpt>
      <trkpt lat="45.43268" lon="6.33709">
        <ele>2192.8</ele>
        <time>2013-08-07T14:08:54Z</time>
      </trkpt>
      <trkpt lat="45.43286" lon="6.33706">
        <ele>2197.89</ele>
        <time>2013-08-07T14:09:38Z</time>
      </trkpt>
      <trkpt lat="45.43303" lon="6.337">
        <ele>2202.52</ele>
        <time>2013-08-07T14:10:12Z</time>
      </trkpt>
      <trkpt lat="45.43321" lon="6.33694">
        <ele>2207.73</ele>
        <time>2013-08-07T14:10:51Z</time>
      </trkpt>
      <trkpt lat="45.43338" lon="6.33687">
        <ele>2212.51</ele>
        <time>2013-08-07T14:11:22Z</time>
      </trkpt>
      <trkpt lat="45.43346" lon="6.33664">
        <ele>2214.68</ele>
        <time>2013-08-07T14:12:02Z</time>
      </trkpt>
      <trkpt lat="45.4335" lon="6.33639">
        <ele>2216.55</ele>
        <time>2013-08-07T14:12:24Z</time>
      </trkpt>
      <trkpt lat="45.43349" lon="6.33613">
        <ele>2219.47</ele>
        <time>2013-08-07T14:12:54Z</time>
      </trkpt>
      <trkpt lat="45.43352" lon="6.33587">
        <ele>2222.6</ele>
        <time>2013-08-07T14:13:29Z</time>
      </trkpt>
      <trkpt lat="45.43349" lon="6.33561">
        <ele>2228.02</ele>
        <time>2013-08-07T14:14:13Z</time>
      </trkpt>
      <trkpt lat="45.43337" lon="6.33541">
        <ele>2230.56</ele>
        <time>2013-08-07T14:14:36Z</time>
      </trkpt>
      <trkpt lat="45.43325" lon="6.33522">
        <ele>2233.25</ele>
        <time>2013-08-07T14:15:01Z</time>
      </trkpt>
      <trkpt lat="45.43316" lon="6.33499">
        <ele>2237.53</ele>
        <time>2013-08-07T14:15:31Z</time>
      </trkpt>
      <trkpt lat="45.43335" lon="6.33499">
        <ele>2247.65</ele>
        <time>2013-08-07T14:16:54Z</time>
      </trkpt>
      <trkpt lat="45.43353" lon="6.33509">
        <ele>2251.5</ele>
        <time>2013-08-07T14:17:22Z</time>
      </trkpt>
      <trkpt lat="45.43362" lon="6.33531">
        <ele>2249.38</ele>
        <time>2013-08-07T14:18:52Z</time>
      </trkpt>
      <trkpt lat="45.43375" lon="6.33512">
        <ele>2253.04</ele>
        <time>2013-08-07T14:20:34Z</time>
      </trkpt>
      <trkpt lat="45.43393" lon="6.33511">
        <ele>2255.27</ele>
        <time>2013-08-07T14:20:52Z</time>
      </trkpt>
      <trkpt lat="45.43411" lon="6.33519">
        <ele>2256.72</ele>
        <time>2013-08-07T14:21:04Z</time>
      </trkpt>
      <trkpt lat="45.43429" lon="6.33521">
        <ele>2257.8</ele>
        <time>2013-08-07T14:21:18Z</time>
      </trkpt>
      <trkpt lat="45.43448" lon="6.3352">
        <ele>2260.01</ele>
        <time>2013-08-07T14:21:48Z</time>
      </trkpt>
      <trkpt lat="45.43668" lon="6.33618">
        <ele>2216.44</ele>
        <time>2013-08-07T14:28:03Z</time>
      </trkpt>
      <trkpt lat="45.43668" lon="6.33644">
        <ele>2206.23</ele>
        <time>2013-08-07T14:28:51Z</time>
      </trkpt>
      <trkpt lat="45.43686" lon="6.3365">
        <ele>2203.93</ele>
        <time>2013-08-07T14:29:20Z</time>
      </trkpt>
      <trkpt lat="45.43699" lon="6.33668">
        <ele>2202.01</ele>
        <time>2013-08-07T14:29:35Z</time>
      </trkpt>
      <trkpt lat="45.43717" lon="6.33673">
        <ele>2197.92</ele>
        <time>2013-08-07T14:29:58Z</time>
      </trkpt>
      <trkpt lat="45.43734" lon="6.33684">
        <ele>2193.36</ele>
        <time>2013-08-07T14:30:18Z</time>
      </trkpt>
      <trkpt lat="45.43745" lon="6.33704">
        <ele>2184.52</ele>
        <time>2013-08-07T14:31:02Z</time>
      </trkpt>
      <trkpt lat="45.43758" lon="6.33723">
        <ele>2175.23</ele>
        <time>2013-08-07T14:31:56Z</time>
      </trkpt>
      <trkpt lat="45.43773" lon="6.33738">
        <ele>2172.03</ele>
        <time>2013-08-07T14:32:09Z</time>
      </trkpt>
      <trkpt lat="45.4379" lon="6.33749">
        <ele>2169.22</ele>
        <time>2013-08-07T14:32:20Z</time>
      </trkpt>
      <trkpt lat="45.43805" lon="6.33766">
        <ele>2166.07</ele>
        <time>2013-08-07T14:32:30Z</time>
      </trkpt>
      <trkpt lat="45.43824" lon="6.33763">
        <ele>2153.34</ele>
        <time>2013-08-07T14:33:28Z</time>
      </trkpt>
      <trkpt lat="45.4384" lon="6.33777">
        <ele>2150.61</ele>
        <time>2013-08-07T14:33:38Z</time>
      </trkpt>
      <trkpt lat="45.4383" lon="6.33754">
        <ele>2142.62</ele>
        <time>2013-08-07T14:34:23Z</time>
      </trkpt>
      <trkpt lat="45.4382" lon="6.33733">
        <ele>2140.81</ele>
        <time>2013-08-07T14:34:31Z</time>
      </trkpt>
      <trkpt lat="45.43809" lon="6.33711">
        <ele>2134.92</ele>
        <time>2013-08-07T14:35:07Z</time>
      </trkpt>
      <trkpt lat="45.43803" lon="6.33686">
        <ele>2132.1</ele>
        <time>2013-08-07T14:35:25Z</time>
      </trkpt>
      <trkpt lat="45.43795" lon="6.33662">
        <ele>2128.37</ele>
        <time>2013-08-07T14:35:52Z</time>
      </trkpt>
      <trkpt lat="45.43812" lon="6.33673">
        <ele>2120.04</ele>
        <time>2013-08-07T14:36:38Z</time>
      </trkpt>
      <trkpt lat="45.43828" lon="6.33687">
        <ele>2116.6</ele>
        <time>2013-08-07T14:36:50Z</time>
      </trkpt>
      <trkpt lat="45.43846" lon="6.33692">
        <ele>2113.21</ele>
        <time>2013-08-07T14:37:01Z</time>
      </trkpt>
      <trkpt lat="45.43862" lon="6.33706">
        <ele>2109.01</ele>
        <time>2013-08-07T14:37:15Z</time>
      </trkpt>
      <trkpt lat="45.43881" lon="6.33707">
        <ele>2102.45</ele>
        <time>2013-08-07T14:37:42Z</time>
      </trkpt>
      <trkpt lat="45.43899" lon="6.3371">
        <ele>2096.97</ele>
        <time>2013-08-07T14:38:09Z</time>
      </trkpt>
      <trkpt lat="45.43919" lon="6.33712">
        <ele>2094.89</ele>
        <time>2013-08-07T14:38:17Z</time>
      </trkpt>
      <trkpt lat="45.43939" lon="6.33715">
        <ele>2093.06</ele>
        <time>2013-08-07T14:38:23Z</time>
      </trkpt>
      <trkpt lat="45.43958" lon="6.33716">
        <ele>2084.61</ele>
        <time>2013-08-07T14:38:58Z</time>
      </trkpt>
      <trkpt lat="45.43946" lon="6.33696">
        <ele>2076.55</ele>
        <time>2013-08-07T14:39:41Z</time>
      </trkpt>
      <trkpt lat="45.4393" lon="6.33683">
        <ele>2073.25</ele>
        <time>2013-08-07T14:39:55Z</time>
      </trkpt>
      <trkpt lat="45.43914" lon="6.33671">
        <ele>2067.27</ele>
        <time>2013-08-07T14:40:22Z</time>
      </trkpt>
      <trkpt lat="45.43898" lon="6.33655">
        <ele>2062.66</ele>
        <time>2013-08-07T14:40:49Z</time>
      </trkpt>
      <trkpt lat="45.43883" lon="6.33641">
        <ele>2059.72</ele>
        <time>2013-08-07T14:41:07Z</time>
      </trkpt>
      <trkpt lat="45.43873" lon="6.33619">
        <ele>2058.2</ele>
        <time>2013-08-07T14:41:22Z</time>
      </trkpt>
      <trkpt lat="45.43865" lon="6.33596">
        <ele>2057.14</ele>
        <time>2013-08-07T14:41:29Z</time>
      </trkpt>
      <trkpt lat="45.43854" lon="6.33573">
        <ele>2055.84</ele>
        <time>2013-08-07T14:41:36Z</time>
      </trkpt>
      <trkpt lat="45.4387" lon="6.33591">
        <ele>2052.64</ele>
        <time>2013-08-07T14:41:53Z</time>
      </trkpt>
      <trkpt lat="45.43884" lon="6.33608">
        <ele>2050.67</ele>
        <time>2013-08-07T14:42:01Z</time>
      </trkpt>
      <trkpt lat="45.43901" lon="6.33621">
        <ele>2048.35</ele>
        <time>2013-08-07T14:42:10Z</time>
      </trkpt>
      <trkpt lat="45.43918" lon="6.3363">
        <ele>2044.94</ele>
        <time>2013-08-07T14:42:22Z</time>
      </trkpt>
      <trkpt lat="45.43935" lon="6.3364">
        <ele>2038.74</ele>
        <time>2013-08-07T14:42:50Z</time>
      </trkpt>
      <trkpt lat="45.43953" lon="6.33642">
        <ele>2036.35</ele>
        <time>2013-08-07T14:42:59Z</time>
      </trkpt>
      <trkpt lat="45.43973" lon="6.33647">
        <ele>2034.46</ele>
        <time>2013-08-07T14:43:07Z</time>
      </trkpt>
      <trkpt lat="45.43991" lon="6.33657">
        <ele>2031.83</ele>
        <time>2013-08-07T14:43:19Z</time>
      </trkpt>
      <trkpt lat="45.44007" lon="6.33669">
        <ele>2027.54</ele>
        <time>2013-08-07T14:43:41Z</time>
      </trkpt>
      <trkpt lat="45.44025" lon="6.33674">
        <ele>2024.21</ele>
        <time>2013-08-07T14:44:03Z</time>
      </trkpt>
      <trkpt lat="45.44042" lon="6.33664">
        <ele>2023.04</ele>
        <time>2013-08-07T14:44:13Z</time>
      </trkpt>
      <trkpt lat="45.44058" lon="6.33652">
        <ele>2019.32</ele>
        <time>2013-08-07T14:44:56Z</time>
      </trkpt>
      <trkpt lat="45.44078" lon="6.33661">
        <ele>2018.77</ele>
        <time>2013-08-07T14:45:30Z</time>
      </trkpt>
      <trkpt lat="45.44097" lon="6.33656">
        <ele>2017.83</ele>
        <time>2013-08-07T14:45:39Z</time>
      </trkpt>
      <trkpt lat="45.44116" lon="6.33656">
        <ele>2016.93</ele>
        <time>2013-08-07T14:45:45Z</time>
      </trkpt>
      <trkpt lat="45.44135" lon="6.33657">
        <ele>2015.49</ele>
        <time>2013-08-07T14:45:54Z</time>
      </trkpt>
      <trkpt lat="45.4412" lon="6.33641">
        <ele>2012.5</ele>
        <time>2013-08-07T14:46:12Z</time>
      </trkpt>
      <trkpt lat="45.44101" lon="6.33631">
        <ele>2010.64</ele>
        <time>2013-08-07T14:46:22Z</time>
      </trkpt>
      <trkpt lat="45.44083" lon="6.33627">
        <ele>2008.75</ele>
        <time>2013-08-07T14:46:32Z</time>
      </trkpt>
      <trkpt lat="45.44067" lon="6.3361">
        <ele>2004.7</ele>
        <time>2013-08-07T14:46:47Z</time>
      </trkpt>
      <trkpt lat="45.44049" lon="6.33602">
        <ele>2003.11</ele>
        <time>2013-08-07T14:46:53Z</time>
      </trkpt>
      <trkpt lat="45.44029" lon="6.33594">
        <ele>2001.54</ele>
        <time>2013-08-07T14:47:00Z</time>
      </trkpt>
      <trkpt lat="45.4401" lon="6.33592">
        <ele>1997.49</ele>
        <time>2013-08-07T14:47:48Z</time>
      </trkpt>
      <trkpt lat="45.43994" lon="6.3358">
        <ele>1995.6</ele>
        <time>2013-08-07T14:47:59Z</time>
      </trkpt>
      <trkpt lat="45.43981" lon="6.33562">
        <ele>1989.21</ele>
        <time>2013-08-07T14:48:30Z</time>
      </trkpt>
      <trkpt lat="45.43969" lon="6.33542">
        <ele>1986.22</ele>
        <time>2013-08-07T14:48:56Z</time>
      </trkpt>
      <trkpt lat="45.43952" lon="6.33524">
        <ele>1983.72</ele>
        <time>2013-08-07T14:49:10Z</time>
      </trkpt>
      <trkpt lat="45.43942" lon="6.33501">
        <ele>1981.61</ele>
        <time>2013-08-07T14:49:23Z</time>
      </trkpt>
      <trkpt lat="45.43931" lon="6.33479">
        <ele>1980.49</ele>
        <time>2013-08-07T14:49:31Z</time>
      </trkpt>
      <trkpt lat="45.43922" lon="6.33456">
        <ele>1977.88</ele>
        <time>2013-08-07T14:49:45Z</time>
      </trkpt>
      <trkpt lat="45.43914" lon="6.33433">
        <ele>1976.37</ele>
        <time>2013-08-07T14:49:53Z</time>
      </trkpt>
      <trkpt lat="45.43904" lon="6.33411">
        <ele>1974.39</ele>
        <time>2013-08-07T14:50:02Z</time>
      </trkpt>
      <trkpt lat="45.4392" lon="6.33426">
        <ele>1971.4</ele>
        <time>2013-08-07T14:50:19Z</time>
      </trkpt>
      <trkpt lat="45.43937" lon="6.33444">
        <ele>1969.32</ele>
        <time>2013-08-07T14:50:29Z</time>
      </trkpt>
      <trkpt lat="45.43951" lon="6.33461">
        <ele>1966.42</ele>
        <time>2013-08-07T14:50:40Z</time>
      </trkpt>
      <trkpt lat="45.43967" lon="6.33473">
        <ele>1964.3</ele>
        <time>2013-08-07T14:50:47Z</time>
      </trkpt>
      <trkpt lat="45.43985" lon="6.33486">
        <ele>1960.79</ele>
        <time>2013-08-07T14:50:59Z</time>
      </trkpt>
      <trkpt lat="45.44003" lon="6.33491">
        <ele>1959.15</ele>
        <time>2013-08-07T14:51:05Z</time>
      </trkpt>
      <trkpt lat="45.44023" lon="6.33496">
        <ele>1954.4</ele>
        <time>2013-08-07T14:51:28Z</time>
      </trkpt>
      <trkpt lat="45.44041" lon="6.33497">
        <ele>1951.54</ele>
        <time>2013-08-07T14:51:47Z</time>
      </trkpt>
      <trkpt lat="45.44059" lon="6.33489">
        <ele>1949.83</ele>
        <time>2013-08-07T14:52:00Z</time>
      </trkpt>
      <trkpt lat="45.44077" lon="6.33486">
        <ele>1947.49</ele>
        <time>2013-08-07T14:52:32Z</time>
      </trkpt>
      <trkpt lat="45.44096" lon="6.33494">
        <ele>1945.65</ele>
        <time>2013-08-07T14:52:44Z</time>
      </trkpt>
      <trkpt lat="45.44115" lon="6.33488">
        <ele>1943.22</ele>
        <time>2013-08-07T14:52:55Z</time>
      </trkpt>
      <trkpt lat="45.44125" lon="6.33466">
        <ele>1941.15</ele>
        <time>2013-08-07T14:53:05Z</time>
      </trkpt>
      <trkpt lat="45.44107" lon="6.33461">
        <ele>1933.81</ele>
        <time>2013-08-07T14:54:02Z</time>
      </trkpt>
      <trkpt lat="45.44092" lon="6.33445">
        <ele>1931.85</ele>
        <time>2013-08-07T14:54:11Z</time>
      </trkpt>
      <trkpt lat="45.44074" lon="6.33434">
        <ele>1929.73</ele>
        <time>2013-08-07T14:54:20Z</time>
      </trkpt>
      <trkpt lat="45.44057" lon="6.33419">
        <ele>1927.24</ele>
        <time>2013-08-07T14:54:32Z</time>
      </trkpt>
      <trkpt lat="45.44041" lon="6.33407">
        <ele>1925.63</ele>
        <time>2013-08-07T14:54:39Z</time>
      </trkpt>
      <trkpt lat="45.44022" lon="6.33401">
        <ele>1924.1</ele>
        <time>2013-08-07T14:54:46Z</time>
      </trkpt>
      <trkpt lat="45.44005" lon="6.33391">
        <ele>1920.96</ele>
        <time>2013-08-07T14:54:58Z</time>
      </trkpt>
      <trkpt lat="45.43992" lon="6.33371">
        <ele>1917.45</ele>
        <time>2013-08-07T14:55:08Z</time>
      </trkpt>
      <trkpt lat="45.43978" lon="6.33353">
        <ele>1912.02</ele>
        <time>2013-08-07T14:55:24Z</time>
      </trkpt>
      <trkpt lat="45.43997" lon="6.33351">
        <ele>1902.78</ele>
        <time>2013-08-07T14:56:01Z</time>
      </trkpt>
      <trkpt lat="45.44015" lon="6.33362">
        <ele>1899.87</ele>
        <time>2013-08-07T14:56:12Z</time>
      </trkpt>
      <trkpt lat="45.44036" lon="6.3337">
        <ele>1897.01</ele>
        <time>2013-08-07T14:56:23Z</time>
      </trkpt>
      <trkpt lat="45.44053" lon="6.33357">
        <ele>1895.4</ele>
        <time>2013-08-07T14:56:30Z</time>
      </trkpt>
      <trkpt lat="45.44071" lon="6.33348">
        <ele>1893.28</ele>
        <time>2013-08-07T14:56:39Z</time>
      </trkpt>
      <trkpt lat="45.44089" lon="6.33354">
        <ele>1891.14</ele>
        <time>2013-08-07T14:56:48Z</time>
      </trkpt>
      <trkpt lat="45.44107" lon="6.33356">
        <ele>1885.92</ele>
        <time>2013-08-07T14:57:13Z</time>
      </trkpt>
      <trkpt lat="45.44007" lon="6.33246">
        <ele>1865.19</ele>
        <time>2013-08-07T14:59:34Z</time>
      </trkpt>
      <trkpt lat="45.44014" lon="6.33273">
        <ele>1853.63</ele>
        <time>2013-08-07T14:59:40Z</time>
      </trkpt>
      <trkpt lat="45.44032" lon="6.33276">
        <ele>1853.55</ele>
        <time>2013-08-07T14:59:51Z</time>
      </trkpt>
      <trkpt lat="45.44051" lon="6.33279">
        <ele>1851.31</ele>
        <time>2013-08-07T15:00:13Z</time>
      </trkpt>
      <trkpt lat="45.44068" lon="6.33267">
        <ele>1850.44</ele>
        <time>2013-08-07T15:00:25Z</time>
      </trkpt>
      <trkpt lat="45.44087" lon="6.33263">
        <ele>1849.53</ele>
        <time>2013-08-07T15:00:33Z</time>
      </trkpt>
      <trkpt lat="45.44107" lon="6.33255">
        <ele>1845.89</ele>
        <time>2013-08-07T15:00:59Z</time>
      </trkpt>
      <trkpt lat="45.44092" lon="6.3324">
        <ele>1842.64</ele>
        <time>2013-08-07T15:01:28Z</time>
      </trkpt>
      <trkpt lat="45.44077" lon="6.33225">
        <ele>1837.45</ele>
        <time>2013-08-07T15:02:27Z</time>
      </trkpt>
      <trkpt lat="45.44056" lon="6.33225">
        <ele>1836.47</ele>
        <time>2013-08-07T15:02:36Z</time>
      </trkpt>
      <trkpt lat="45.44038" lon="6.33223">
        <ele>1835.81</ele>
        <time>2013-08-07T15:02:45Z</time>
      </trkpt>
      <trkpt lat="45.44053" lon="6.33207">
        <ele>1830.01</ele>
        <time>2013-08-07T15:03:24Z</time>
      </trkpt>
      <trkpt lat="45.4407" lon="6.33196">
        <ele>1827.95</ele>
        <time>2013-08-07T15:03:32Z</time>
      </trkpt>
      <trkpt lat="45.44053" lon="6.33186">
        <ele>1822.75</ele>
        <time>2013-08-07T15:03:53Z</time>
      </trkpt>
      <trkpt lat="45.44035" lon="6.33192">
        <ele>1818.29</ele>
        <time>2013-08-07T15:04:13Z</time>
      </trkpt>
      <trkpt lat="45.44021" lon="6.33175">
        <ele>1812.25</ele>
        <time>2013-08-07T15:04:37Z</time>
      </trkpt>
      <trkpt lat="45.44007" lon="6.33155">
        <ele>1809.24</ele>
        <time>2013-08-07T15:04:56Z</time>
      </trkpt>
      <trkpt lat="45.43993" lon="6.33138">
        <ele>1802.34</ele>
        <time>2013-08-07T15:05:30Z</time>
      </trkpt>
      <trkpt lat="45.43982" lon="6.33117">
        <ele>1800.48</ele>
        <time>2013-08-07T15:05:38Z</time>
      </trkpt>
      <trkpt lat="45.43968" lon="6.33099">
        <ele>1798.04</ele>
        <time>2013-08-07T15:05:48Z</time>
      </trkpt>
      <trkpt lat="45.43954" lon="6.33082">
        <ele>1791.93</ele>
        <time>2013-08-07T15:06:21Z</time>
      </trkpt>
      <trkpt lat="45.43937" lon="6.33077">
        <ele>1786.43</ele>
        <time>2013-08-07T15:06:44Z</time>
      </trkpt>
      <trkpt lat="45.43919" lon="6.33067">
        <ele>1782.71</ele>
        <time>2013-08-07T15:07:02Z</time>
      </trkpt>
      <trkpt lat="45.43938" lon="6.33065">
        <ele>1779.55</ele>
        <time>2013-08-07T15:07:22Z</time>
      </trkpt>
      <trkpt lat="45.43955" lon="6.33057">
        <ele>1777.45</ele>
        <time>2013-08-07T15:07:34Z</time>
      </trkpt>
      <trkpt lat="45.43974" lon="6.33059">
        <ele>1776.35</ele>
        <time>2013-08-07T15:07:44Z</time>
      </trkpt>
      <trkpt lat="45.43992" lon="6.33069">
        <ele>1774.62</ele>
        <time>2013-08-07T15:07:57Z</time>
      </trkpt>
      <trkpt lat="45.4401" lon="6.33076">
        <ele>1772.17</ele>
        <time>2013-08-07T15:08:10Z</time>
      </trkpt>
      <trkpt lat="45.44024" lon="6.33095">
        <ele>1766.47</ele>
        <time>2013-08-07T15:08:32Z</time>
      </trkpt>
      <trkpt lat="45.44041" lon="6.33103">
        <ele>1761.59</ele>
        <time>2013-08-07T15:08:54Z</time>
      </trkpt>
      <trkpt lat="45.44059" lon="6.33091">
        <ele>1760.21</ele>
        <time>2013-08-07T15:09:03Z</time>
      </trkpt>
      <trkpt lat="45.44077" lon="6.33087">
        <ele>1757.11</ele>
        <time>2013-08-07T15:09:22Z</time>
      </trkpt>
      <trkpt lat="45.44066" lon="6.33064">
        <ele>1754.74</ele>
        <time>2013-08-07T15:09:36Z</time>
      </trkpt>
      <trkpt lat="45.44046" lon="6.33066">
        <ele>1752.73</ele>
        <time>2013-08-07T15:09:44Z</time>
      </trkpt>
      <trkpt lat="45.44062" lon="6.33052">
        <ele>1749.31</ele>
        <time>2013-08-07T15:10:00Z</time>
      </trkpt>
      <trkpt lat="45.44079" lon="6.33044">
        <ele>1747.16</ele>
        <time>2013-08-07T15:10:08Z</time>
      </trkpt>
      <trkpt lat="45.44097" lon="6.33039">
        <ele>1733.42</ele>
        <time>2013-08-07T15:11:17Z</time>
      </trkpt>
      <trkpt lat="45.44115" lon="6.33033">
        <ele>1730.28</ele>
        <time>2013-08-07T15:11:48Z</time>
      </trkpt>
      <trkpt lat="45.4413" lon="6.33017">
        <ele>1730.86</ele>
        <time>2013-08-07T15:12:12Z</time>
      </trkpt>
      <trkpt lat="45.44146" lon="6.33002">
        <ele>1731.38</ele>
        <time>2013-08-07T15:12:20Z</time>
      </trkpt>
      <trkpt lat="45.4416" lon="6.32981">
        <ele>1731.2</ele>
        <time>2013-08-07T15:12:26Z</time>
      </trkpt>
      <trkpt lat="45.44173" lon="6.32962">
        <ele>1730.49</ele>
        <time>2013-08-07T15:12:34Z</time>
      </trkpt>
      <trkpt lat="45.44186" lon="6.32941">
        <ele>1728.24</ele>
        <time>2013-08-07T15:12:47Z</time>
      </trkpt>
      <trkpt lat="45.44196" lon="6.32918">
        <ele>1727</ele>
        <time>2013-08-07T15:12:54Z</time>
      </trkpt>
      <trkpt lat="45.4421" lon="6.32898">
        <ele>1724.33</ele>
        <time>2013-08-07T15:13:05Z</time>
      </trkpt>
      <trkpt lat="45.44225" lon="6.32884">
        <ele>1722.12</ele>
        <time>2013-08-07T15:13:15Z</time>
      </trkpt>
      <trkpt lat="45.44243" lon="6.32877">
        <ele>1716.35</ele>
        <time>2013-08-07T15:13:53Z</time>
      </trkpt>
      <trkpt lat="45.44264" lon="6.32877">
        <ele>1713.15</ele>
        <time>2013-08-07T15:13:59Z</time>
      </trkpt>
      <trkpt lat="45.44284" lon="6.32879">
        <ele>1709.28</ele>
        <time>2013-08-07T15:14:10Z</time>
      </trkpt>
      <trkpt lat="45.44302" lon="6.3288">
        <ele>1705.09</ele>
        <time>2013-08-07T15:14:22Z</time>
      </trkpt>
      <trkpt lat="45.44307" lon="6.32854">
        <ele>1700.81</ele>
        <time>2013-08-07T15:14:50Z</time>
      </trkpt>
      <trkpt lat="45.44305" lon="6.32829">
        <ele>1705.94</ele>
        <time>2013-08-07T15:15:14Z</time>
      </trkpt>
      <trkpt lat="45.44318" lon="6.32811">
        <ele>1704.8</ele>
        <time>2013-08-07T15:15:51Z</time>
      </trkpt>
      <trkpt lat="45.44325" lon="6.32786">
        <ele>1706.26</ele>
        <time>2013-08-07T15:16:14Z</time>
      </trkpt>
      <trkpt lat="45.44332" lon="6.32762">
        <ele>1707.81</ele>
        <time>2013-08-07T15:16:29Z</time>
      </trkpt>
      <trkpt lat="45.44341" lon="6.32737">
        <ele>1705.9</ele>
        <time>2013-08-07T15:17:12Z</time>
      </trkpt>
      <trkpt lat="45.44352" lon="6.32716">
        <ele>1704.33</ele>
        <time>2013-08-07T15:17:39Z</time>
      </trkpt>
      <trkpt lat="45.4437" lon="6.32706">
        <ele>1703.5</ele>
        <time>2013-08-07T15:18:00Z</time>
      </trkpt>
      <trkpt lat="45.44386" lon="6.32695">
        <ele>1702.36</ele>
        <time>2013-08-07T15:18:57Z</time>
      </trkpt>
      <trkpt lat="45.44405" lon="6.32705">
        <ele>1701.36</ele>
        <time>2013-08-07T15:19:29Z</time>
      </trkpt>
      <trkpt lat="45.44424" lon="6.32706">
        <ele>1699.56</ele>
        <time>2013-08-07T15:19:44Z</time>
      </trkpt>
      <trkpt lat="45.44443" lon="6.32709">
        <ele>1697.24</ele>
        <time>2013-08-07T15:20:09Z</time>
      </trkpt>
      <trkpt lat="45.44456" lon="6.3269">
        <ele>1700.71</ele>
        <time>2013-08-07T15:21:09Z</time>
      </trkpt>
      <trkpt lat="45.44472" lon="6.32678">
        <ele>1703.48</ele>
        <time>2013-08-07T15:21:58Z</time>
      </trkpt>
      <trkpt lat="45.44483" lon="6.32658">
        <ele>1706.8</ele>
        <time>2013-08-07T15:24:11Z</time>
      </trkpt>
      <trkpt lat="45.44496" lon="6.32638">
        <ele>1712.89</ele>
        <time>2013-08-07T15:24:32Z</time>
      </trkpt>
      <trkpt lat="45.44506" lon="6.32616">
        <ele>1714.81</ele>
        <time>2013-08-07T15:24:58Z</time>
      </trkpt>
      <trkpt lat="45.44514" lon="6.32592">
        <ele>1716.53</ele>
        <time>2013-08-07T15:25:20Z</time>
      </trkpt>
      <trkpt lat="45.44521" lon="6.32569">
        <ele>1717.2</ele>
        <time>2013-08-07T15:25:40Z</time>
      </trkpt>
      <trkpt lat="45.44538" lon="6.32548">
        <ele>1719.84</ele>
        <time>2013-08-07T15:25:55Z</time>
      </trkpt>
      <trkpt lat="45.44551" lon="6.32527">
        <ele>1720.87</ele>
        <time>2013-08-07T15:26:03Z</time>
      </trkpt>
      <trkpt lat="45.44559" lon="6.32503">
        <ele>1721.61</ele>
        <time>2013-08-07T15:26:14Z</time>
      </trkpt>
      <trkpt lat="45.44576" lon="6.32491">
        <ele>1722.92</ele>
        <time>2013-08-07T15:26:32Z</time>
      </trkpt>
      <trkpt lat="45.44586" lon="6.32469">
        <ele>1722.47</ele>
        <time>2013-08-07T15:26:56Z</time>
      </trkpt>
      <trkpt lat="45.44585" lon="6.32441">
        <ele>1719.41</ele>
        <time>2013-08-07T15:27:14Z</time>
      </trkpt>
      <trkpt lat="45.44585" lon="6.32415">
        <ele>1717.1</ele>
        <time>2013-08-07T15:27:22Z</time>
      </trkpt>
      <trkpt lat="45.446" lon="6.32399">
        <ele>1711.2</ele>
        <time>2013-08-07T15:27:36Z</time>
      </trkpt>
      <trkpt lat="45.44619" lon="6.32385">
        <ele>1705.27</ele>
        <time>2013-08-07T15:27:48Z</time>
      </trkpt>
      <trkpt lat="45.44636" lon="6.32376">
        <ele>1696.56</ele>
        <time>2013-08-07T15:28:11Z</time>
      </trkpt>
      <trkpt lat="45.44636" lon="6.32349">
        <ele>1683.61</ele>
        <time>2013-08-07T15:28:43Z</time>
      </trkpt>
      <trkpt lat="45.4463" lon="6.32287">
        <ele>1660.11</ele>
        <time>2013-08-07T15:30:01Z</time>
      </trkpt>
      <trkpt lat="45.44649" lon="6.32288">
        <ele>1658.34</ele>
        <time>2013-08-07T15:30:07Z</time>
      </trkpt>
      <trkpt lat="45.44666" lon="6.32281">
        <ele>1654.56</ele>
        <time>2013-08-07T15:30:15Z</time>
      </trkpt>
      <trkpt lat="45.44675" lon="6.32258">
        <ele>1647.75</ele>
        <time>2013-08-07T15:30:29Z</time>
      </trkpt>
      <trkpt lat="45.44667" lon="6.32235">
        <ele>1642.44</ele>
        <time>2013-08-07T15:30:40Z</time>
      </trkpt>
      <trkpt lat="45.44683" lon="6.32222">
        <ele>1630.28</ele>
        <time>2013-08-07T15:31:02Z</time>
      </trkpt>
      <trkpt lat="45.44681" lon="6.32197">
        <ele>1620.12</ele>
        <time>2013-08-07T15:31:27Z</time>
      </trkpt>
      <trkpt lat="45.44687" lon="6.32172">
        <ele>1613.16</ele>
        <time>2013-08-07T15:31:44Z</time>
      </trkpt>
      <trkpt lat="45.44689" lon="6.32144">
        <ele>1604.65</ele>
        <time>2013-08-07T15:31:58Z</time>
      </trkpt>
      <trkpt lat="45.4468" lon="6.32121">
        <ele>1596.34</ele>
        <time>2013-08-07T15:32:13Z</time>
      </trkpt>
      <trkpt lat="45.44667" lon="6.32103">
        <ele>1586.06</ele>
        <time>2013-08-07T15:32:34Z</time>
      </trkpt>
      <trkpt lat="45.44684" lon="6.32093">
        <ele>1576.82</ele>
        <time>2013-08-07T15:33:02Z</time>
      </trkpt>
      <trkpt lat="45.44698" lon="6.32074">
        <ele>1560.68</ele>
        <time>2013-08-07T15:33:45Z</time>
      </trkpt>
      <trkpt lat="45.44689" lon="6.3205">
        <ele>1556.44</ele>
        <time>2013-08-07T15:33:55Z</time>
      </trkpt>
      <trkpt lat="45.44687" lon="6.32024">
        <ele>1547.93</ele>
        <time>2013-08-07T15:34:13Z</time>
      </trkpt>
      <trkpt lat="45.44703" lon="6.32011">
        <ele>1538.53</ele>
        <time>2013-08-07T15:34:37Z</time>
      </trkpt>
      <trkpt lat="45.44722" lon="6.32015">
        <ele>1533.84</ele>
        <time>2013-08-07T15:34:49Z</time>
      </trkpt>
      <trkpt lat="45.44739" lon="6.32025">
        <ele>1525.93</ele>
        <time>2013-08-07T15:35:07Z</time>
      </trkpt>
      <trkpt lat="45.44755" lon="6.32012">
        <ele>1513.01</ele>
        <time>2013-08-07T15:35:52Z</time>
      </trkpt>
      <trkpt lat="45.44773" lon="6.32008">
        <ele>1506.4</ele>
        <time>2013-08-07T15:36:13Z</time>
      </trkpt>
      <trkpt lat="45.4478" lon="6.31983">
        <ele>1474.59</ele>
        <time>2013-08-07T15:38:14Z</time>
      </trkpt>
      <trkpt lat="45.44779" lon="6.31957">
        <ele>1467.48</ele>
        <time>2013-08-07T15:39:28Z</time>
      </trkpt>
      <trkpt lat="45.44797" lon="6.31953">
        <ele>1459.73</ele>
        <time>2013-08-07T15:39:58Z</time>
      </trkpt>
      <trkpt lat="45.44816" lon="6.31962">
        <ele>1457.08</ele>
        <time>2013-08-07T15:40:07Z</time>
      </trkpt>
      <trkpt lat="45.44827" lon="6.31982">
        <ele>1451.98</ele>
        <time>2013-08-07T15:40:23Z</time>
      </trkpt>
      <trkpt lat="45.44815" lon="6.31958">
        <ele>1443.26</ele>
        <time>2013-08-07T15:40:53Z</time>
      </trkpt>
      <trkpt lat="45.44808" lon="6.31931">
        <ele>1441.53</ele>
        <time>2013-08-07T15:40:57Z</time>
      </trkpt>
      <trkpt lat="45.44803" lon="6.31904">
        <ele>1438.4</ele>
        <time>2013-08-07T15:41:04Z</time>
      </trkpt>
      <trkpt lat="45.44795" lon="6.3188">
        <ele>1434.94</ele>
        <time>2013-08-07T15:41:11Z</time>
      </trkpt>
      <trkpt lat="45.44785" lon="6.31858">
        <ele>1432.4</ele>
        <time>2013-08-07T15:41:17Z</time>
      </trkpt>
      <trkpt lat="45.44773" lon="6.31835">
        <ele>1429.97</ele>
        <time>2013-08-07T15:41:23Z</time>
      </trkpt>
      <trkpt lat="45.44762" lon="6.31814">
        <ele>1427.47</ele>
        <time>2013-08-07T15:41:28Z</time>
      </trkpt>
      <trkpt lat="45.44749" lon="6.31791">
        <ele>1424.3</ele>
        <time>2013-08-07T15:41:34Z</time>
      </trkpt>
      <trkpt lat="45.44737" lon="6.31771">
        <ele>1407.89</ele>
        <time>2013-08-07T15:42:51Z</time>
      </trkpt>
      <trkpt lat="45.44718" lon="6.31774">
        <ele>1398.17</ele>
        <time>2013-08-07T15:45:12Z</time>
      </trkpt>
      <trkpt lat="45.44697" lon="6.31765">
        <ele>1397.34</ele>
        <time>2013-08-07T15:45:17Z</time>
      </trkpt>
      <trkpt lat="45.44678" lon="6.31754">
        <ele>1394.87</ele>
        <time>2013-08-07T15:45:22Z</time>
      </trkpt>
      <trkpt lat="45.44658" lon="6.31744">
        <ele>1393.54</ele>
        <time>2013-08-07T15:45:27Z</time>
      </trkpt>
      <trkpt lat="45.44637" lon="6.31741">
        <ele>1389.58</ele>
        <time>2013-08-07T15:45:32Z</time>
      </trkpt>
      <trkpt lat="45.44618" lon="6.3174">
        <ele>1385.74</ele>
        <time>2013-08-07T15:45:39Z</time>
      </trkpt>
      <trkpt lat="45.44598" lon="6.31737">
        <ele>1383.07</ele>
        <time>2013-08-07T15:45:48Z</time>
      </trkpt>
      <trkpt lat="45.4458" lon="6.31746">
        <ele>1381.85</ele>
        <time>2013-08-07T15:45:53Z</time>
      </trkpt>
      <trkpt lat="45.44562" lon="6.31756">
        <ele>1378.05</ele>
        <time>2013-08-07T15:46:10Z</time>
      </trkpt>
      <trkpt lat="45.44543" lon="6.31766">
        <ele>1376.42</ele>
        <time>2013-08-07T15:46:17Z</time>
      </trkpt>
      <trkpt lat="45.44523" lon="6.31774">
        <ele>1374.92</ele>
        <time>2013-08-07T15:46:25Z</time>
      </trkpt>
      <trkpt lat="45.44506" lon="6.31782">
        <ele>1372.97</ele>
        <time>2013-08-07T15:46:44Z</time>
      </trkpt>
      <trkpt lat="45.44488" lon="6.31789">
        <ele>1373.77</ele>
        <time>2013-08-07T15:46:59Z</time>
      </trkpt>
      <trkpt lat="45.44475" lon="6.31809">
        <ele>1374.64</ele>
        <time>2013-08-07T15:47:25Z</time>
      </trkpt>
      <trkpt lat="45.44457" lon="6.31813">
        <ele>1374.33</ele>
        <time>2013-08-07T15:47:32Z</time>
      </trkpt>
      <trkpt lat="45.44441" lon="6.31826">
        <ele>1371.11</ele>
        <time>2013-08-07T15:47:54Z</time>
      </trkpt>
      <trkpt lat="45.44458" lon="6.31815">
        <ele>1369.07</ele>
        <time>2013-08-07T15:49:17Z</time>
      </trkpt>
      <trkpt lat="45.44472" lon="6.31798">
        <ele>1373.36</ele>
        <time>2013-08-07T15:49:40Z</time>
      </trkpt>
      <trkpt lat="45.44492" lon="6.31793">
        <ele>1375.72</ele>
        <time>2013-08-07T15:50:08Z</time>
      </trkpt>
      <trkpt lat="45.4451" lon="6.31784">
        <ele>1375.51</ele>
        <time>2013-08-07T15:50:17Z</time>
      </trkpt>
      <trkpt lat="45.44529" lon="6.31777">
        <ele>1375.31</ele>
        <time>2013-08-07T15:50:35Z</time>
      </trkpt>
      <trkpt lat="45.44547" lon="6.3177">
        <ele>1373.72</ele>
        <time>2013-08-07T15:50:43Z</time>
      </trkpt>
      <trkpt lat="45.44561" lon="6.31754">
        <ele>1372.93</ele>
        <time>2013-08-07T15:50:47Z</time>
      </trkpt>
      <trkpt lat="45.44578" lon="6.31739">
        <ele>1371.87</ele>
        <time>2013-08-07T15:50:53Z</time>
      </trkpt>
      <trkpt lat="45.44594" lon="6.31724">
        <ele>1371.06</ele>
        <time>2013-08-07T15:51:03Z</time>
      </trkpt>
      <trkpt lat="45.44612" lon="6.31713">
        <ele>1370.19</ele>
        <time>2013-08-07T15:51:12Z</time>
      </trkpt>
      <trkpt lat="45.44629" lon="6.31703">
        <ele>1368.74</ele>
        <time>2013-08-07T15:51:21Z</time>
      </trkpt>
      <trkpt lat="45.44647" lon="6.31689">
        <ele>1366.81</ele>
        <time>2013-08-07T15:51:30Z</time>
      </trkpt>
      <trkpt lat="45.44666" lon="6.31679">
        <ele>1365.37</ele>
        <time>2013-08-07T15:51:36Z</time>
      </trkpt>
      <trkpt lat="45.44682" lon="6.31664">
        <ele>1363.86</ele>
        <time>2013-08-07T15:51:42Z</time>
      </trkpt>
      <trkpt lat="45.44701" lon="6.31656">
        <ele>1360.19</ele>
        <time>2013-08-07T15:51:52Z</time>
      </trkpt>
      <trkpt lat="45.4472" lon="6.31649">
        <ele>1356.51</ele>
        <time>2013-08-07T15:52:02Z</time>
      </trkpt>
      <trkpt lat="45.44738" lon="6.31643">
        <ele>1353.94</ele>
        <time>2013-08-07T15:52:09Z</time>
      </trkpt>
      <trkpt lat="45.44758" lon="6.31634">
        <ele>1350.57</ele>
        <time>2013-08-07T15:52:17Z</time>
      </trkpt>
      <trkpt lat="45.44774" lon="6.31621">
        <ele>1346.93</ele>
        <time>2013-08-07T15:52:25Z</time>
      </trkpt>
      <trkpt lat="45.44788" lon="6.31606">
        <ele>1336.56</ele>
        <time>2013-08-07T15:52:48Z</time>
      </trkpt>
      <trkpt lat="45.44797" lon="6.31581">
        <ele>1322.21</ele>
        <time>2013-08-07T15:53:12Z</time>
      </trkpt>
      <trkpt lat="45.44814" lon="6.31569">
        <ele>1315.29</ele>
        <time>2013-08-07T15:53:22Z</time>
      </trkpt>
      <trkpt lat="45.44816" lon="6.31542">
        <ele>1303.67</ele>
        <time>2013-08-07T15:53:40Z</time>
      </trkpt>
      <trkpt lat="45.44807" lon="6.31519">
        <ele>1298.84</ele>
        <time>2013-08-07T15:53:49Z</time>
      </trkpt>
      <trkpt lat="45.44804" lon="6.31494">
        <ele>1293.35</ele>
        <time>2013-08-07T15:53:58Z</time>
      </trkpt>
      <trkpt lat="45.44822" lon="6.31484">
        <ele>1283.95</ele>
        <time>2013-08-07T15:54:12Z</time>
      </trkpt>
      <trkpt lat="45.44839" lon="6.3149">
        <ele>1275.77</ele>
        <time>2013-08-07T15:54:30Z</time>
      </trkpt>
      <trkpt lat="45.44846" lon="6.31464">
        <ele>1264.27</ele>
        <time>2013-08-07T15:54:49Z</time>
      </trkpt>
      <trkpt lat="45.44839" lon="6.31439">
        <ele>1257.1</ele>
        <time>2013-08-07T15:54:58Z</time>
      </trkpt>
      <trkpt lat="45.44831" lon="6.31415">
        <ele>1249.93</ele>
        <time>2013-08-07T15:55:08Z</time>
      </trkpt>
      <trkpt lat="45.44824" lon="6.31389">
        <ele>1234.93</ele>
        <time>2013-08-07T15:55:33Z</time>
      </trkpt>
      <trkpt lat="45.44816" lon="6.31366">
        <ele>1225.54</ele>
        <time>2013-08-07T15:55:48Z</time>
      </trkpt>
      <trkpt lat="45.44824" lon="6.31342">
        <ele>1213.8</ele>
        <time>2013-08-07T15:56:08Z</time>
      </trkpt>
      <trkpt lat="45.44841" lon="6.3133">
        <ele>1209.11</ele>
        <time>2013-08-07T15:56:16Z</time>
      </trkpt>
      <trkpt lat="45.44833" lon="6.31306">
        <ele>1178.91</ele>
        <time>2013-08-07T15:58:26Z</time>
      </trkpt>
      <trkpt lat="45.44824" lon="6.31282">
        <ele>1173.38</ele>
        <time>2013-08-07T15:58:49Z</time>
      </trkpt>
      <trkpt lat="45.4482" lon="6.31256">
        <ele>1168.53</ele>
        <time>2013-08-07T15:59:01Z</time>
      </trkpt>
      <trkpt lat="45.44805" lon="6.31237">
        <ele>1162.97</ele>
        <time>2013-08-07T15:59:15Z</time>
      </trkpt>
      <trkpt lat="45.44791" lon="6.3122">
        <ele>1153.66</ele>
        <time>2013-08-07T15:59:37Z</time>
      </trkpt>
      <trkpt lat="45.44853" lon="6.3122">
        <ele>1127.38</ele>
        <time>2013-08-07T16:00:40Z</time>
      </trkpt>
      <trkpt lat="45.44867" lon="6.31204">
        <ele>1107.13</ele>
        <time>2013-08-07T16:00:55Z</time>
      </trkpt>
      <trkpt lat="45.44884" lon="6.31194">
        <ele>1083.81</ele>
        <time>2013-08-07T16:01:27Z</time>
      </trkpt>
      <trkpt lat="45.44903" lon="6.31199">
        <ele>1084.03</ele>
        <time>2013-08-07T16:01:39Z</time>
      </trkpt>
      <trkpt lat="45.44922" lon="6.31203">
        <ele>1084.7</ele>
        <time>2013-08-07T16:01:48Z</time>
      </trkpt>
      <trkpt lat="45.4494" lon="6.3121">
        <ele>1084.69</ele>
        <time>2013-08-07T16:01:56Z</time>
      </trkpt>
      <trkpt lat="45.44959" lon="6.31221">
        <ele>1083.76</ele>
        <time>2013-08-07T16:02:04Z</time>
      </trkpt>
      <trkpt lat="45.44976" lon="6.31233">
        <ele>1082.35</ele>
        <time>2013-08-07T16:02:12Z</time>
      </trkpt>
      <trkpt lat="45.44993" lon="6.31227">
        <ele>1073.02</ele>
        <time>2013-08-07T16:02:45Z</time>
      </trkpt>
      <trkpt lat="45.45011" lon="6.31238">
        <ele>1067.41</ele>
        <time>2013-08-07T16:02:56Z</time>
      </trkpt>
      <trkpt lat="45.4503" lon="6.31245">
        <ele>1060.54</ele>
        <time>2013-08-07T16:03:12Z</time>
      </trkpt>
      <trkpt lat="45.45048" lon="6.31249">
        <ele>1055.15</ele>
        <time>2013-08-07T16:03:27Z</time>
      </trkpt>
      <trkpt lat="45.45064" lon="6.31238">
        <ele>1038.44</ele>
        <time>2013-08-07T16:04:07Z</time>
      </trkpt>
      <trkpt lat="45.45082" lon="6.31232">
        <ele>1026.28</ele>
        <time>2013-08-07T16:04:27Z</time>
      </trkpt>
      <trkpt lat="45.45095" lon="6.31252">
        <ele>1019.14</ele>
        <time>2013-08-07T16:04:41Z</time>
      </trkpt>
      <trkpt lat="45.45105" lon="6.31277">
        <ele>1015.47</ele>
        <time>2013-08-07T16:04:49Z</time>
      </trkpt>
      <trkpt lat="45.45119" lon="6.31293">
        <ele>1006.61</ele>
        <time>2013-08-07T16:05:10Z</time>
      </trkpt>
      <trkpt lat="45.45124" lon="6.31268">
        <ele>990.02</ele>
        <time>2013-08-07T16:06:01Z</time>
      </trkpt>
      <trkpt lat="45.4513" lon="6.31242">
        <ele>983.87</ele>
        <time>2013-08-07T16:06:21Z</time>
      </trkpt>
      <trkpt lat="45.45128" lon="6.31216">
        <ele>979.78</ele>
        <time>2013-08-07T16:06:44Z</time>
      </trkpt>
      <trkpt lat="45.4512" lon="6.31192">
        <ele>972.69</ele>
        <time>2013-08-07T16:07:18Z</time>
      </trkpt>
      <trkpt lat="45.45119" lon="6.31164">
        <ele>969.15</ele>
        <time>2013-08-07T16:07:33Z</time>
      </trkpt>
      <trkpt lat="45.45121" lon="6.31137">
        <ele>963.2</ele>
        <time>2013-08-07T16:07:47Z</time>
      </trkpt>
      <trkpt lat="45.4512" lon="6.31111">
        <ele>951.76</ele>
        <time>2013-08-07T16:08:37Z</time>
      </trkpt>
      <trkpt lat="45.45112" lon="6.31088">
        <ele>945.29</ele>
        <time>2013-08-07T16:09:10Z</time>
      </trkpt>
      <trkpt lat="45.45109" lon="6.31062">
        <ele>940.92</ele>
        <time>2013-08-07T16:09:31Z</time>
      </trkpt>
      <trkpt lat="45.45104" lon="6.31037">
        <ele>936.69</ele>
        <time>2013-08-07T16:09:46Z</time>
      </trkpt>
      <trkpt lat="45.45101" lon="6.31011">
        <ele>931.35</ele>
        <time>2013-08-07T16:10:01Z</time>
      </trkpt>
      <trkpt lat="45.45107" lon="6.30986">
        <ele>927.04</ele>
        <time>2013-08-07T16:10:14Z</time>
      </trkpt>
      <trkpt lat="45.45107" lon="6.30959">
        <ele>920.23</ele>
        <time>2013-08-07T16:10:32Z</time>
      </trkpt>
      <trkpt lat="45.45109" lon="6.30931">
        <ele>916.16</ele>
        <time>2013-08-07T16:10:43Z</time>
      </trkpt>
      <trkpt lat="45.45109" lon="6.30904">
        <ele>914.47</ele>
        <time>2013-08-07T16:10:48Z</time>
      </trkpt>
      <trkpt lat="45.45111" lon="6.30878">
        <ele>912.27</ele>
        <time>2013-08-07T16:10:56Z</time>
      </trkpt>
      <trkpt lat="45.45112" lon="6.3085">
        <ele>910.06</ele>
        <time>2013-08-07T16:11:04Z</time>
      </trkpt>
      <trkpt lat="45.45112" lon="6.30823">
        <ele>907.31</ele>
        <time>2013-08-07T16:11:12Z</time>
      </trkpt>
      <trkpt lat="45.45117" lon="6.30793">
        <ele>904.48</ele>
        <time>2013-08-07T16:11:20Z</time>
      </trkpt>
      <trkpt lat="45.45131" lon="6.30773">
        <ele>902.09</ele>
        <time>2013-08-07T16:11:26Z</time>
      </trkpt>
      <trkpt lat="45.45149" lon="6.30764">
        <ele>895.53</ele>
        <time>2013-08-07T16:11:42Z</time>
      </trkpt>
      <trkpt lat="45.45167" lon="6.30752">
        <ele>891.61</ele>
        <time>2013-08-07T16:11:51Z</time>
      </trkpt>
      <trkpt lat="45.4518" lon="6.30732">
        <ele>888.84</ele>
        <time>2013-08-07T16:11:58Z</time>
      </trkpt>
      <trkpt lat="45.45162" lon="6.30725">
        <ele>883.68</ele>
        <time>2013-08-07T16:12:10Z</time>
      </trkpt>
      <trkpt lat="45.45144" lon="6.30724">
        <ele>879.01</ele>
        <time>2013-08-07T16:12:21Z</time>
      </trkpt>
      <trkpt lat="45.45125" lon="6.30724">
        <ele>870.82</ele>
        <time>2013-08-07T16:12:45Z</time>
      </trkpt>
      <trkpt lat="45.45107" lon="6.30718">
        <ele>862.6</ele>
        <time>2013-08-07T16:13:01Z</time>
      </trkpt>
      <trkpt lat="45.4512" lon="6.30697">
        <ele>856.15</ele>
        <time>2013-08-07T16:13:15Z</time>
      </trkpt>
      <trkpt lat="45.45134" lon="6.3068">
        <ele>850.84</ele>
        <time>2013-08-07T16:13:26Z</time>
      </trkpt>
      <trkpt lat="45.45152" lon="6.30672">
        <ele>842.4</ele>
        <time>2013-08-07T16:13:42Z</time>
      </trkpt>
      <trkpt lat="45.4517" lon="6.30663">
        <ele>834.96</ele>
        <time>2013-08-07T16:13:47Z</time>
      </trkpt>
      <trkpt lat="45.45187" lon="6.30652">
        <ele>831.46</ele>
        <time>2013-08-07T16:13:53Z</time>
      </trkpt>
      <trkpt lat="45.45207" lon="6.30639">
        <ele>828.9</ele>
        <time>2013-08-07T16:14:01Z</time>
      </trkpt>
      <trkpt lat="45.45224" lon="6.30626">
        <ele>826.22</ele>
        <time>2013-08-07T16:14:10Z</time>
      </trkpt>
      <trkpt lat="45.45241" lon="6.30614">
        <ele>822.91</ele>
        <time>2013-08-07T16:14:20Z</time>
      </trkpt>
      <trkpt lat="45.45261" lon="6.3061">
        <ele>820.68</ele>
        <time>2013-08-07T16:14:26Z</time>
      </trkpt>
      <trkpt lat="45.45277" lon="6.30597">
        <ele>814.12</ele>
        <time>2013-08-07T16:14:45Z</time>
      </trkpt>
      <trkpt lat="45.45259" lon="6.30588">
        <ele>800.88</ele>
        <time>2013-08-07T16:15:24Z</time>
      </trkpt>
      <trkpt lat="45.45242" lon="6.30577">
        <ele>793.67</ele>
        <time>2013-08-07T16:15:47Z</time>
      </trkpt>
      <trkpt lat="45.45224" lon="6.3057">
        <ele>788.12</ele>
        <time>2013-08-07T16:16:05Z</time>
      </trkpt>
      <trkpt lat="45.45205" lon="6.30563">
        <ele>784.52</ele>
        <time>2013-08-07T16:16:14Z</time>
      </trkpt>
      <trkpt lat="45.45187" lon="6.30557">
        <ele>779</ele>
        <time>2013-08-07T16:16:33Z</time>
      </trkpt>
      <trkpt lat="45.45181" lon="6.30532">
        <ele>764.58</ele>
        <time>2013-08-07T16:17:10Z</time>
      </trkpt>
      <trkpt lat="45.45167" lon="6.30515">
        <ele>756.14</ele>
        <time>2013-08-07T16:17:28Z</time>
      </trkpt>
      <trkpt lat="45.45149" lon="6.30506">
        <ele>751.87</ele>
        <time>2013-08-07T16:17:38Z</time>
      </trkpt>
      <trkpt lat="45.45131" lon="6.30505">
        <ele>746.96</ele>
        <time>2013-08-07T16:17:48Z</time>
      </trkpt>
      <trkpt lat="45.4515" lon="6.30499">
        <ele>737.58</ele>
        <time>2013-08-07T16:18:15Z</time>
      </trkpt>
      <trkpt lat="45.45138" lon="6.30477">
        <ele>732.02</ele>
        <time>2013-08-07T16:18:28Z</time>
      </trkpt>
      <trkpt lat="45.45119" lon="6.30467">
        <ele>727.62</ele>
        <time>2013-08-07T16:18:38Z</time>
      </trkpt>
      <trkpt lat="45.45101" lon="6.30469">
        <ele>697.83</ele>
        <time>2013-08-07T16:20:50Z</time>
      </trkpt>
      <trkpt lat="45.45083" lon="6.30473">
        <ele>693.58</ele>
        <time>2013-08-07T16:21:03Z</time>
      </trkpt>
      <trkpt lat="45.45065" lon="6.30476">
        <ele>688.03</ele>
        <time>2013-08-07T16:21:25Z</time>
      </trkpt>
      <trkpt lat="45.45046" lon="6.30475">
        <ele>681.58</ele>
        <time>2013-08-07T16:21:51Z</time>
      </trkpt>
      <trkpt lat="45.45038" lon="6.30451">
        <ele>668.7</ele>
        <time>2013-08-07T16:22:48Z</time>
      </trkpt>
      <trkpt lat="45.45023" lon="6.30436">
        <ele>661.27</ele>
        <time>2013-08-07T16:23:11Z</time>
      </trkpt>
      <trkpt lat="45.45008" lon="6.30422">
        <ele>654</ele>
        <time>2013-08-07T16:23:33Z</time>
      </trkpt>
      <trkpt lat="45.44993" lon="6.30404">
        <ele>646.49</ele>
        <time>2013-08-07T16:23:51Z</time>
      </trkpt>
      <trkpt lat="45.44977" lon="6.3039">
        <ele>640.62</ele>
        <time>2013-08-07T16:24:06Z</time>
      </trkpt>
      <trkpt lat="45.44961" lon="6.30377">
        <ele>635.31</ele>
        <time>2013-08-07T16:24:17Z</time>
      </trkpt>
      <trkpt lat="45.44946" lon="6.3036">
        <ele>630.62</ele>
        <time>2013-08-07T16:24:26Z</time>
      </trkpt>
      <trkpt lat="45.44954" lon="6.30336">
        <ele>619.25</ele>
        <time>2013-08-07T16:24:51Z</time>
      </trkpt>
      <trkpt lat="45.44948" lon="6.3031">
        <ele>610.84</ele>
        <time>2013-08-07T16:25:07Z</time>
      </trkpt>
      <trkpt lat="45.44929" lon="6.3031">
        <ele>606.82</ele>
        <time>2013-08-07T16:25:14Z</time>
      </trkpt>
      <trkpt lat="45.44911" lon="6.30312">
        <ele>599.19</ele>
        <time>2013-08-07T16:25:28Z</time>
      </trkpt>
      <trkpt lat="45.44892" lon="6.30307">
        <ele>591.79</ele>
        <time>2013-08-07T16:25:41Z</time>
      </trkpt>
      <trkpt lat="45.44873" lon="6.30297">
        <ele>584.35</ele>
        <time>2013-08-07T16:25:56Z</time>
      </trkpt>
      <trkpt lat="45.44858" lon="6.30283">
        <ele>576.23</ele>
        <time>2013-08-07T16:26:13Z</time>
      </trkpt>
      <trkpt lat="45.44866" lon="6.30259">
        <ele>561.25</ele>
        <time>2013-08-07T16:26:41Z</time>
      </trkpt>
      <trkpt lat="45.44861" lon="6.30234">
        <ele>551.12</ele>
        <time>2013-08-07T16:27:03Z</time>
      </trkpt>
      <trkpt lat="45.44846" lon="6.3022">
        <ele>546.85</ele>
        <time>2013-08-07T16:27:13Z</time>
      </trkpt>
      <trkpt lat="45.44828" lon="6.30223">
        <ele>539.59</ele>
        <time>2013-08-07T16:27:31Z</time>
      </trkpt>
      <trkpt lat="45.44807" lon="6.30226">
        <ele>537.39</ele>
        <time>2013-08-07T16:27:37Z</time>
      </trkpt>
      <trkpt lat="45.44792" lon="6.30211">
        <ele>532.69</ele>
        <time>2013-08-07T16:27:48Z</time>
      </trkpt>
      <trkpt lat="45.44795" lon="6.30181">
        <ele>528.07</ele>
        <time>2013-08-07T16:27:57Z</time>
      </trkpt>
      <trkpt lat="45.44809" lon="6.30164">
        <ele>521.98</ele>
        <time>2013-08-07T16:28:11Z</time>
      </trkpt>
      <trkpt lat="45.44826" lon="6.30153">
        <ele>516.98</ele>
        <time>2013-08-07T16:28:26Z</time>
      </trkpt>
      <trkpt lat="45.44843" lon="6.30142">
        <ele>515.2</ele>
        <time>2013-08-07T16:28:31Z</time>
      </trkpt>
      <trkpt lat="45.44853" lon="6.30121">
        <ele>512.56</ele>
        <time>2013-08-07T16:28:38Z</time>
      </trkpt>
      <trkpt lat="45.44854" lon="6.30093">
        <ele>510.19</ele>
        <time>2013-08-07T16:28:44Z</time>
      </trkpt>
      <trkpt lat="45.44849" lon="6.30064">
        <ele>507.2</ele>
        <time>2013-08-07T16:28:51Z</time>
      </trkpt>
      <trkpt lat="45.44839" lon="6.30042">
        <ele>503.21</ele>
        <time>2013-08-07T16:29:00Z</time>
      </trkpt>
      <trkpt lat="45.4486" lon="6.30047">
        <ele>499.06</ele>
        <time>2013-08-07T16:29:07Z</time>
      </trkpt>
      <trkpt lat="45.44878" lon="6.30051">
        <ele>490.6</ele>
        <time>2013-08-07T16:29:11Z</time>
      </trkpt>
      <trkpt lat="45.44898" lon="6.30052">
        <ele>482.93</ele>
        <time>2013-08-07T16:29:16Z</time>
      </trkpt>
      <trkpt lat="45.44906" lon="6.30029">
        <ele>475.17</ele>
        <time>2013-08-07T16:29:41Z</time>
      </trkpt>
      <trkpt lat="45.44899" lon="6.30001">
        <ele>471.99</ele>
        <time>2013-08-07T16:29:47Z</time>
      </trkpt>
      <trkpt lat="45.44889" lon="6.29977">
        <ele>469.57</ele>
        <time>2013-08-07T16:29:58Z</time>
      </trkpt>
      <trkpt lat="45.45438" lon="6.29699">
        <ele>419.83</ele>
        <time>2013-08-07T16:35:16Z</time>
      </trkpt>
    </trkseg>
  </trk>
</gpx>